Observation data for Bootleg on 07/11/2020      Previous  Date  Next       Current Mesonet Observations  Soil Data  Daily Summary Page  Observations in Plain Language
KBO1 110500Z 17014KT 28/12 A3013 RMK A01 T02820118  RH  036%=      5-min Rain = 0
KBO1 110501Z 17015KT 28/12 A3013 RMK A01 T02810118  RH  036%=      5-min Rain = 0
KBO1 110502Z 17014KT 28/12 A3013 RMK A01 T02810118  RH  037%=      5-min Rain = 0
KBO1 110503Z 17015KT 28/12 A3013 RMK A01 T02800118  RH  037%=      5-min Rain = 0
KBO1 110504Z 17016KT 28/12 A3013 RMK A01 T02810118  RH  036%=      5-min Rain = 0
KBO1 110505Z 17014KT 28/12 A3013 RMK A01 T02800117  RH  036%=      5-min Rain = 0
KBO1 110506Z 17015KT 28/12 A3013 RMK A01 T02800118  RH  037%=      5-min Rain = 0
KBO1 110507Z 17015KT 28/12 A3013 RMK A01 T02800118  RH  037%=      5-min Rain = 0
KBO1 110508Z 17015KT 28/12 A3013 RMK A01 T02800118  RH  037%=      5-min Rain = 0
KBO1 110509Z 17016KT 28/12 A3013 RMK A01 T02790118  RH  037%=      5-min Rain = 0
KBO1 110510Z 17015KT 28/12 A3013 RMK A01 T02800118  RH  037%=      5-min Rain = 0
KBO1 110511Z 17015KT 28/12 A3013 RMK A01 T02800118  RH  037%=      5-min Rain = 0
KBO1 110512Z 17016KT 28/12 A3013 RMK A01 T02800118  RH  037%=      5-min Rain = 0
KBO1 110513Z 17016KT 28/12 A3013 RMK A01 T02800119  RH  037%=      5-min Rain = 0
KBO1 110514Z 17015KT 28/12 A3013 RMK A01 T02800119  RH  037%=      5-min Rain = 0
KBO1 110515Z 17015KT 28/12 A3013 RMK A01 T02800119  RH  037%=      5-min Rain = 0
KBO1 110516Z 17015KT 28/12 A3013 RMK A01 T02800119  RH  037%=      5-min Rain = 0
KBO1 110517Z 17017KT 28/12 A3013 RMK A01 T02790119  RH  037%=      5-min Rain = 0
KBO1 110518Z 17015KT 28/12 A3013 RMK A01 T02790119  RH  037%=      5-min Rain = 0
KBO1 110519Z 17015KT 28/12 A3013 RMK A01 T02790119  RH  037%=      5-min Rain = 0
KBO1 110520Z 17015KT 28/12 A3013 RMK A01 T02790119  RH  037%=      5-min Rain = 0
KBO1 110521Z 17013KT 28/12 A3013 RMK A01 T02780119  RH  037%=      5-min Rain = 0
KBO1 110522Z 17014KT 28/12 A3013 RMK A01 T02770119  RH  038%=      5-min Rain = 0
KBO1 110523Z 18015KT 28/12 A3013 RMK A01 T02760119  RH  038%=      5-min Rain = 0
KBO1 110524Z 18013KT 28/12 A3013 RMK A01 T02760120  RH  038%=      5-min Rain = 0
KBO1 110525Z 17013KT 28/12 A3013 RMK A01 T02750120  RH  038%=      5-min Rain = 0
KBO1 110526Z 18013KT 28/12 A3013 RMK A01 T02750120  RH  038%=      5-min Rain = 0
KBO1 110527Z 17013KT 27/12 A3013 RMK A01 T02740120  RH  038%=      5-min Rain = 0
KBO1 110528Z 18014KT 27/12 A3013 RMK A01 T02730120  RH  039%=      5-min Rain = 0
KBO1 110529Z 17015KT 27/12 A3013 RMK A01 T02720120  RH  039%=      5-min Rain = 0
KBO1 110530Z 17015KT 27/12 A3013 RMK A01 T02720120  RH  039%=      5-min Rain = 0
KBO1 110531Z 18015KT 27/12 A3013 RMK A01 T02720120  RH  039%=      5-min Rain = 0
KBO1 110532Z 18014KT 27/12 A3013 RMK A01 T02730120  RH  039%=      5-min Rain = 0
KBO1 110533Z 18014KT 27/12 A3013 RMK A01 T02730121  RH  039%=      5-min Rain = 0
KBO1 110534Z 18015KT 27/12 A3013 RMK A01 T02730121  RH  039%=      5-min Rain = 0
KBO1 110535Z 18015KT 27/12 A3013 RMK A01 T02720120  RH  039%=      5-min Rain = 0
KBO1 110536Z 18014KT 27/12 A3013 RMK A01 T02730120  RH  039%=      5-min Rain = 0
KBO1 110537Z 18015KT 27/12 A3013 RMK A01 T02720120  RH  039%=      5-min Rain = 0
KBO1 110538Z 18015KT 27/12 A3013 RMK A01 T02720120  RH  039%=      5-min Rain = 0
KBO1 110539Z 18015KT 27/12 A3013 RMK A01 T02730120  RH  039%=      5-min Rain = 0
KBO1 110540Z 18016KT 27/12 A3013 RMK A01 T02720120  RH  039%=      5-min Rain = 0
KBO1 110541Z 18015KT 27/12 A3013 RMK A01 T02720120  RH  039%=      5-min Rain = 0
KBO1 110542Z 18015KT 27/12 A3013 RMK A01 T02720120  RH  039%=      5-min Rain = 0
KBO1 110543Z 18015KT 27/12 A3013 RMK A01 T02720121  RH  039%=      5-min Rain = 0
KBO1 110544Z 18015KT 27/12 A3013 RMK A01 T02720120  RH  039%=      5-min Rain = 0
KBO1 110545Z 18015KT 27/12 A3013 RMK A01 T02720121  RH  039%=      5-min Rain = 0
KBO1 110546Z 18016KT 27/12 A3013 RMK A01 T02720120  RH  039%=      5-min Rain = 0
KBO1 110547Z 18014KT 27/12 A3013 RMK A01 T02720120  RH  039%=      5-min Rain = 0
KBO1 110548Z 18014KT 27/12 A3014 RMK A01 T02720120  RH  039%=      5-min Rain = 0
KBO1 110549Z 18014KT 27/12 A3014 RMK A01 T02710120  RH  039%=      5-min Rain = 0
KBO1 110550Z 18015KT 27/12 A3014 RMK A01 T02710120  RH  039%=      5-min Rain = 0
KBO1 110551Z 17015KT 27/12 A3014 RMK A01 T02700120  RH  039%=      5-min Rain = 0
KBO1 110552Z 17014KT 27/12 A3014 RMK A01 T02700120  RH  039%=      5-min Rain = 0
KBO1 110553Z 18014KT 27/12 A3014 RMK A01 T02700120  RH  039%=      5-min Rain = 0
KBO1 110554Z 17013KT 27/12 A3014 RMK A01 T02690121  RH  040%=      5-min Rain = 0
KBO1 110555Z 18014KT 27/12 A3014 RMK A01 T02680121  RH  040%=      5-min Rain = 0
KBO1 110556Z 17014KT 27/12 A3014 RMK A01 T02680120  RH  040%=      5-min Rain = 0
KBO1 110557Z 17015KT 27/12 A3014 RMK A01 T02680120  RH  040%=      5-min Rain = 0
KBO1 110558Z 17014KT 27/12 A3014 RMK A01 T02680120  RH  040%=      5-min Rain = 0
KBO1 110559Z 17014KT 27/12 A3014 RMK A01 T02680121  RH  040%=      5-min Rain = 0
KBO1 110600Z 17014KT 27/12 A3014 RMK A01 T02680121  RH  040%=      5-min Rain = 0
KBO1 110601Z 17014KT 27/12 A3014 RMK A01 T02670120  RH  040%=      5-min Rain = 0
KBO1 110602Z 17013KT 27/12 A3014 RMK A01 T02680120  RH  040%=      5-min Rain = 0
KBO1 110603Z 17015KT 27/12 A3014 RMK A01 T02670120  RH  040%=      5-min Rain = 0
KBO1 110604Z 18014KT 27/12 A3014 RMK A01 T02680121  RH  040%=      5-min Rain = 0
KBO1 110605Z 17015KT 27/12 A3014 RMK A01 T02670121  RH  040%=      5-min Rain = 0
KBO1 110606Z 17015KT 27/12 A3014 RMK A01 T02670121  RH  040%=      5-min Rain = 0
KBO1 110607Z 17014KT 27/12 A3014 RMK A01 T02670121  RH  040%=      5-min Rain = 0
KBO1 110608Z 18014KT 27/12 A3014 RMK A01 T02670121  RH  040%=      5-min Rain = 0
KBO1 110609Z 17015KT 27/12 A3014 RMK A01 T02660121  RH  040%=      5-min Rain = 0
KBO1 110610Z 17015KT 27/12 A3014 RMK A01 T02660121  RH  040%=      5-min Rain = 0
KBO1 110611Z 17014KT 27/12 A3014 RMK A01 T02660121  RH  041%=      5-min Rain = 0
KBO1 110612Z 17014KT 27/12 A3014 RMK A01 T02660121  RH  041%=      5-min Rain = 0
KBO1 110613Z 17013KT 27/12 A3014 RMK A01 T02650121  RH  041%=      5-min Rain = 0
KBO1 110614Z 17015KT 26/12 A3014 RMK A01 T02640121  RH  041%=      5-min Rain = 0
KBO1 110615Z 17013KT 26/12 A3014 RMK A01 T02640121  RH  041%=      5-min Rain = 0
KBO1 110616Z 17014KT 26/12 A3014 RMK A01 T02630121  RH  041%=      5-min Rain = 0
KBO1 110617Z 17013KT 26/12 A3014 RMK A01 T02630121  RH  041%=      5-min Rain = 0
KBO1 110618Z 17014KT 26/12 A3014 RMK A01 T02620121  RH  042%=      5-min Rain = 0
KBO1 110619Z 17014KT 26/12 A3014 RMK A01 T02620121  RH  042%=      5-min Rain = 0
KBO1 110620Z 17014KT 26/12 A3014 RMK A01 T02620121  RH  041%=      5-min Rain = 0
KBO1 110621Z 17013KT 26/12 A3014 RMK A01 T02620122  RH  042%=      5-min Rain = 0
KBO1 110622Z 17014KT 26/12 A3014 RMK A01 T02620122  RH  042%=      5-min Rain = 0
KBO1 110623Z 17013KT 26/12 A3014 RMK A01 T02620122  RH  042%=      5-min Rain = 0
KBO1 110624Z 17013KT 26/12 A3014 RMK A01 T02610122  RH  042%=      5-min Rain = 0
KBO1 110625Z 18012KT 26/12 A3014 RMK A01 T02610122  RH  042%=      5-min Rain = 0
KBO1 110626Z 18014KT 26/12 A3014 RMK A01 T02600123  RH  042%=      5-min Rain = 0
KBO1 110627Z 17013KT 26/12 A3014 RMK A01 T02590122  RH  042%=      5-min Rain = 0
KBO1 110628Z 17013KT 26/12 A3014 RMK A01 T02590122  RH  043%=      5-min Rain = 0
KBO1 110629Z 17014KT 26/12 A3014 RMK A01 T02590123  RH  043%=      5-min Rain = 0
KBO1 110630Z 17012KT 26/12 A3014 RMK A01 T02590123  RH  043%=      5-min Rain = 0
KBO1 110631Z 17013KT 26/12 A3014 RMK A01 T02590123  RH  043%=      5-min Rain = 0
KBO1 110632Z 17013KT 26/12 A3014 RMK A01 T02590123  RH  043%=      5-min Rain = 0
KBO1 110633Z 18013KT 26/12 A3014 RMK A01 T02580124  RH  043%=      5-min Rain = 0
KBO1 110634Z 17013KT 26/12 A3014 RMK A01 T02580123  RH  043%=      5-min Rain = 0
KBO1 110635Z 18013KT 26/12 A3014 RMK A01 T02580124  RH  043%=      5-min Rain = 0
KBO1 110636Z 18013KT 26/12 A3014 RMK A01 T02580124  RH  043%=      5-min Rain = 0
KBO1 110637Z 18013KT 26/12 A3014 RMK A01 T02580124  RH  043%=      5-min Rain = 0
KBO1 110638Z 18013KT 26/12 A3014 RMK A01 T02570124  RH  044%=      5-min Rain = 0
KBO1 110639Z 18014KT 26/13 A3014 RMK A01 T02570125  RH  044%=      5-min Rain = 0
KBO1 110640Z 17013KT 26/12 A3014 RMK A01 T02560124  RH  044%=      5-min Rain = 0
KBO1 110641Z 18014KT 26/13 A3014 RMK A01 T02570125  RH  044%=      5-min Rain = 0
KBO1 110642Z 18013KT 26/12 A3014 RMK A01 T02560124  RH  044%=      5-min Rain = 0
KBO1 110643Z 18014KT 26/13 A3014 RMK A01 T02570125  RH  044%=      5-min Rain = 0
KBO1 110644Z 18013KT 26/13 A3014 RMK A01 T02570125  RH  044%=      5-min Rain = 0
KBO1 110645Z 18014KT 26/13 A3014 RMK A01 T02560126  RH  044%=      5-min Rain = 0
KBO1 110646Z 18014KT 26/13 A3014 RMK A01 T02560125  RH  044%=      5-min Rain = 0
KBO1 110647Z 18014KT 26/13 A3014 RMK A01 T02560125  RH  044%=      5-min Rain = 0
KBO1 110648Z 18014KT 26/13 A3013 RMK A01 T02560125  RH  044%=      5-min Rain = 0
KBO1 110649Z 18014KT 26/13 A3013 RMK A01 T02560125  RH  044%=      5-min Rain = 0
KBO1 110650Z 18014KT 26/13 A3013 RMK A01 T02560126  RH  044%=      5-min Rain = 0
KBO1 110651Z 18015KT 26/13 A3013 RMK A01 T02560126  RH  044%=      5-min Rain = 0
KBO1 110652Z 18013KT 26/13 A3013 RMK A01 T02560126  RH  044%=      5-min Rain = 0
KBO1 110653Z 18014KT 26/13 A3013 RMK A01 T02550126  RH  045%=      5-min Rain = 0
KBO1 110654Z 18014KT 26/13 A3013 RMK A01 T02550126  RH  045%=      5-min Rain = 0
KBO1 110655Z 18013KT 25/13 A3013 RMK A01 T02540126  RH  045%=      5-min Rain = 0
KBO1 110656Z 18012KT 25/13 A3013 RMK A01 T02540126  RH  045%=      5-min Rain = 0
KBO1 110657Z 18013KT 25/13 A3013 RMK A01 T02530126  RH  045%=      5-min Rain = 0
KBO1 110658Z 18012KT 25/13 A3013 RMK A01 T02530126  RH  045%=      5-min Rain = 0
KBO1 110659Z 18013KT 25/13 A3013 RMK A01 T02520126  RH  046%=      5-min Rain = 0
KBO1 110700Z 18013KT 25/13 A3013 RMK A01 T02510126  RH  046%=      5-min Rain = 0
KBO1 110701Z 18013KT 25/13 A3013 RMK A01 T02510126  RH  046%=      5-min Rain = 0
KBO1 110702Z 18013KT 25/13 A3013 RMK A01 T02510126  RH  046%=      5-min Rain = 0
KBO1 110703Z 18013KT 25/13 A3013 RMK A01 T02510126  RH  046%=      5-min Rain = 0
KBO1 110704Z 18013KT 25/13 A3013 RMK A01 T02510126  RH  046%=      5-min Rain = 0
KBO1 110705Z 18013KT 25/13 A3013 RMK A01 T02500126  RH  046%=      5-min Rain = 0
KBO1 110706Z 18013KT 25/13 A3013 RMK A01 T02500126  RH  046%=      5-min Rain = 0
KBO1 110707Z 18013KT 25/13 A3013 RMK A01 T02490126  RH  046%=      5-min Rain = 0
KBO1 110708Z 18014KT 25/13 A3013 RMK A01 T02490126  RH  046%=      5-min Rain = 0
KBO1 110709Z 18014KT 25/13 A3013 RMK A01 T02490126  RH  046%=      5-min Rain = 0
KBO1 110710Z 18014KT 25/13 A3013 RMK A01 T02490125  RH  046%=      5-min Rain = 0
KBO1 110711Z 18014G19KT 25/13 A3013 RMK A01 T02500126  RH  046%=      5-min Rain = 0
KBO1 110712Z 18013KT 25/13 A3013 RMK A01 T02500126  RH  046%=      5-min Rain = 0
KBO1 110713Z 18013KT 25/13 A3013 RMK A01 T02500125  RH  046%=      5-min Rain = 0
KBO1 110714Z 18013KT 25/13 A3013 RMK A01 T02500126  RH  046%=      5-min Rain = 0
KBO1 110715Z 18013KT 25/13 A3014 RMK A01 T02490125  RH  046%=      5-min Rain = 0
KBO1 110716Z 18014KT 25/13 A3014 RMK A01 T02490125  RH  046%=      5-min Rain = 0
KBO1 110717Z 18013KT 25/13 A3014 RMK A01 T02490125  RH  046%=      5-min Rain = 0
KBO1 110718Z 19013KT 25/13 A3014 RMK A01 T02490125  RH  046%=      5-min Rain = 0
KBO1 110719Z 18013KT 25/13 A3014 RMK A01 T02490125  RH  046%=      5-min Rain = 0
KBO1 110720Z 18012KT 25/13 A3014 RMK A01 T02480125  RH  046%=      5-min Rain = 0
KBO1 110721Z 18012KT 25/13 A3014 RMK A01 T02470125  RH  047%=      5-min Rain = 0
KBO1 110722Z 18013KT 25/13 A3014 RMK A01 T02460125  RH  047%=      5-min Rain = 0
KBO1 110723Z 19014KT 25/13 A3014 RMK A01 T02460125  RH  047%=      5-min Rain = 0
KBO1 110724Z 19014KT 25/13 A3014 RMK A01 T02460125  RH  047%=      5-min Rain = 0
KBO1 110725Z 19013KT 25/12 A3014 RMK A01 T02460124  RH  047%=      5-min Rain = 0
KBO1 110726Z 19013KT 25/13 A3014 RMK A01 T02460125  RH  047%=      5-min Rain = 0
KBO1 110727Z 19013KT 25/13 A3014 RMK A01 T02460125  RH  047%=      5-min Rain = 0
KBO1 110728Z 19013KT 25/13 A3014 RMK A01 T02460125  RH  047%=      5-min Rain = 0
KBO1 110729Z 19012KT 25/13 A3014 RMK A01 T02450125  RH  047%=      5-min Rain = 0
KBO1 110730Z 18013KT 25/13 A3014 RMK A01 T02450125  RH  047%=      5-min Rain = 0
KBO1 110731Z 19013KT 25/13 A3013 RMK A01 T02450125  RH  047%=      5-min Rain = 0
KBO1 110732Z 19013KT 25/13 A3013 RMK A01 T02450125  RH  047%=      5-min Rain = 0
KBO1 110733Z 19013KT 25/12 A3013 RMK A01 T02450124  RH  047%=      5-min Rain = 0
KBO1 110734Z 19013KT 25/13 A3014 RMK A01 T02450125  RH  047%=      5-min Rain = 0
KBO1 110735Z 19012KT 25/13 A3014 RMK A01 T02450125  RH  047%=      5-min Rain = 0
KBO1 110736Z 19013KT 25/12 A3014 RMK A01 T02450124  RH  047%=      5-min Rain = 0
KBO1 110737Z 19013KT 24/12 A3014 RMK A01 T02440124  RH  047%=      5-min Rain = 0
KBO1 110738Z 19012KT 25/13 A3013 RMK A01 T02450125  RH  047%=      5-min Rain = 0
KBO1 110739Z 19013KT 25/13 A3014 RMK A01 T02450125  RH  047%=      5-min Rain = 0
KBO1 110740Z 19013KT 25/12 A3013 RMK A01 T02450124  RH  047%=      5-min Rain = 0
KBO1 110741Z 19013KT 25/12 A3013 RMK A01 T02450124  RH  047%=      5-min Rain = 0
KBO1 110742Z 19012KT 25/12 A3014 RMK A01 T02450124  RH  047%=      5-min Rain = 0
KBO1 110743Z 19013KT 25/13 A3013 RMK A01 T02450125  RH  047%=      5-min Rain = 0
KBO1 110744Z 19013KT 25/12 A3013 RMK A01 T02450124  RH  047%=      5-min Rain = 0
KBO1 110745Z 19012KT 25/12 A3013 RMK A01 T02450124  RH  047%=      5-min Rain = 0
KBO1 110746Z 19014KT 25/12 A3013 RMK A01 T02450124  RH  047%=      5-min Rain = 0
KBO1 110747Z 19013KT 25/12 A3013 RMK A01 T02450124  RH  047%=      5-min Rain = 0
KBO1 110748Z 19014KT 25/12 A3013 RMK A01 T02450124  RH  047%=      5-min Rain = 0
KBO1 110749Z 19014KT 25/12 A3013 RMK A01 T02450123  RH  047%=      5-min Rain = 0
KBO1 110750Z 19013KT 25/12 A3013 RMK A01 T02450123  RH  047%=      5-min Rain = 0
KBO1 110751Z 19014KT 25/12 A3013 RMK A01 T02450123  RH  047%=      5-min Rain = 0
KBO1 110752Z 19013KT 25/12 A3013 RMK A01 T02450123  RH  046%=      5-min Rain = 0
KBO1 110753Z 19014KT 25/12 A3013 RMK A01 T02460123  RH  046%=      5-min Rain = 0
KBO1 110754Z 19013KT 25/12 A3013 RMK A01 T02460123  RH  046%=      5-min Rain = 0
KBO1 110755Z 19013KT 25/12 A3013 RMK A01 T02460123  RH  046%=      5-min Rain = 0
KBO1 110756Z 19014KT 25/12 A3013 RMK A01 T02460123  RH  046%=      5-min Rain = 0
KBO1 110757Z 19014KT 25/12 A3013 RMK A01 T02470122  RH  046%=      5-min Rain = 0
KBO1 110758Z 19013KT 25/12 A3013 RMK A01 T02470122  RH  046%=      5-min Rain = 0
KBO1 110759Z 19014KT 25/12 A3013 RMK A01 T02470122  RH  046%=      5-min Rain = 0
KBO1 110800Z 19014KT 25/12 A3013 RMK A01 T02470122  RH  046%=      5-min Rain = 0
KBO1 110801Z 19014KT 25/12 A3013 RMK A01 T02470122  RH  046%=      5-min Rain = 0
KBO1 110802Z 19015KT 25/12 A3013 RMK A01 T02470121  RH  045%=      5-min Rain = 0
KBO1 110803Z 19013KT 25/12 A3013 RMK A01 T02480121  RH  045%=      5-min Rain = 0
KBO1 110804Z 19014KT 25/12 A3013 RMK A01 T02490121  RH  045%=      5-min Rain = 0
KBO1 110805Z 19014KT 25/12 A3013 RMK A01 T02490121  RH  045%=      5-min Rain = 0
KBO1 110806Z 19014KT 25/12 A3013 RMK A01 T02490121  RH  045%=      5-min Rain = 0
KBO1 110807Z 19013KT 25/12 A3013 RMK A01 T02500121  RH  045%=      5-min Rain = 0
KBO1 110808Z 19014KT 25/12 A3013 RMK A01 T02490121  RH  045%=      5-min Rain = 0
KBO1 110809Z 19015KT 25/12 A3013 RMK A01 T02490121  RH  045%=      5-min Rain = 0
KBO1 110810Z 19014KT 25/12 A3013 RMK A01 T02500121  RH  045%=      5-min Rain = 0
KBO1 110811Z 20014KT 25/12 A3013 RMK A01 T02500120  RH  044%=      5-min Rain = 0
KBO1 110812Z 20014KT 25/12 A3013 RMK A01 T02500121  RH  044%=      5-min Rain = 0
KBO1 110813Z 20014KT 25/12 A3013 RMK A01 T02500121  RH  044%=      5-min Rain = 0
KBO1 110814Z 20014KT 25/12 A3013 RMK A01 T02500120  RH  044%=      5-min Rain = 0
KBO1 110815Z 20014KT 25/12 A3013 RMK A01 T02500120  RH  044%=      5-min Rain = 0
KBO1 110816Z 20015KT 25/12 A3013 RMK A01 T02500120  RH  044%=      5-min Rain = 0
KBO1 110817Z 20015KT 25/12 A3013 RMK A01 T02500120  RH  044%=      5-min Rain = 0
KBO1 110818Z 20014KT 25/12 A3013 RMK A01 T02510120  RH  044%=      5-min Rain = 0
KBO1 110819Z 19015KT 25/12 A3013 RMK A01 T02510120  RH  044%=      5-min Rain = 0
KBO1 110820Z 20015KT 25/12 A3013 RMK A01 T02500120  RH  044%=      5-min Rain = 0
KBO1 110821Z 20014KT 25/12 A3013 RMK A01 T02500120  RH  044%=      5-min Rain = 0
KBO1 110822Z 20015KT 25/12 A3013 RMK A01 T02510120  RH  044%=      5-min Rain = 0
KBO1 110823Z 20015KT 25/12 A3013 RMK A01 T02510120  RH  044%=      5-min Rain = 0
KBO1 110824Z 20014KT 25/12 A3013 RMK A01 T02500120  RH  044%=      5-min Rain = 0
KBO1 110825Z 20014KT 25/12 A3013 RMK A01 T02500120  RH  044%=      5-min Rain = 0
KBO1 110826Z 20014KT 25/12 A3013 RMK A01 T02490120  RH  044%=      5-min Rain = 0
KBO1 110827Z 20014KT 25/12 A3013 RMK A01 T02490120  RH  045%=      5-min Rain = 0
KBO1 110828Z 20015KT 25/12 A3013 RMK A01 T02480120  RH  045%=      5-min Rain = 0
KBO1 110829Z 20015KT 25/12 A3013 RMK A01 T02480119  RH  045%=      5-min Rain = 0
KBO1 110830Z 20014KT 25/12 A3013 RMK A01 T02490120  RH  044%=      5-min Rain = 0
KBO1 110831Z 20014KT 25/12 A3013 RMK A01 T02490120  RH  044%=      5-min Rain = 0
KBO1 110832Z 20014KT 25/12 A3013 RMK A01 T02490120  RH  045%=      5-min Rain = 0
KBO1 110833Z 20014KT 25/12 A3013 RMK A01 T02480120  RH  045%=      5-min Rain = 0
KBO1 110834Z 20014KT 25/12 A3013 RMK A01 T02480120  RH  045%=      5-min Rain = 0
KBO1 110835Z 20014KT 25/12 A3012 RMK A01 T02470119  RH  045%=      5-min Rain = 0
KBO1 110836Z 20014KT 25/12 A3013 RMK A01 T02480119  RH  045%=      5-min Rain = 0
KBO1 110837Z 20014KT 25/12 A3013 RMK A01 T02480119  RH  045%=      5-min Rain = 0
KBO1 110838Z 20014KT 25/12 A3012 RMK A01 T02480119  RH  045%=      5-min Rain = 0
KBO1 110839Z 20013KT 25/12 A3012 RMK A01 T02480119  RH  044%=      5-min Rain = 0
KBO1 110840Z 20014KT 25/12 A3012 RMK A01 T02480118  RH  044%=      5-min Rain = 0
KBO1 110841Z 20014KT 25/12 A3012 RMK A01 T02480119  RH  044%=      5-min Rain = 0
KBO1 110842Z 20014KT 25/12 A3012 RMK A01 T02480119  RH  044%=      5-min Rain = 0
KBO1 110843Z 20014KT 25/12 A3012 RMK A01 T02470119  RH  045%=      5-min Rain = 0
KBO1 110844Z 20014KT 25/12 A3012 RMK A01 T02470118  RH  045%=      5-min Rain = 0
KBO1 110845Z 20014KT 25/12 A3012 RMK A01 T02470118  RH  044%=      5-min Rain = 0
KBO1 110846Z 20014KT 25/12 A3012 RMK A01 T02470118  RH  044%=      5-min Rain = 0
KBO1 110847Z 20015KT 25/12 A3012 RMK A01 T02470118  RH  044%=      5-min Rain = 0
KBO1 110848Z 20014KT 25/12 A3012 RMK A01 T02470118  RH  044%=      5-min Rain = 0
KBO1 110849Z 20015KT 25/12 A3012 RMK A01 T02470117  RH  044%=      5-min Rain = 0
KBO1 110850Z 20015KT 25/12 A3012 RMK A01 T02470117  RH  044%=      5-min Rain = 0
KBO1 110851Z 20014KT 25/12 A3012 RMK A01 T02480117  RH  044%=      5-min Rain = 0
KBO1 110852Z 20014KT 25/12 A3012 RMK A01 T02490117  RH  044%=      5-min Rain = 0
KBO1 110853Z 20014KT 25/12 A3012 RMK A01 T02490117  RH  044%=      5-min Rain = 0
KBO1 110854Z 20015KT 25/12 A3012 RMK A01 T02500117  RH  043%=      5-min Rain = 0
KBO1 110855Z 20016KT 25/12 A3012 RMK A01 T02500117  RH  043%=      5-min Rain = 0
KBO1 110856Z 20015KT 25/12 A3012 RMK A01 T02510117  RH  043%=      5-min Rain = 0
KBO1 110857Z 20016KT 25/12 A3012 RMK A01 T02520117  RH  043%=      5-min Rain = 0
KBO1 110858Z 20015KT 25/12 A3012 RMK A01 T02530117  RH  043%=      5-min Rain = 0
KBO1 110859Z 20016KT 25/12 A3012 RMK A01 T02530117  RH  042%=      5-min Rain = 0
KBO1 110900Z 20015KT 25/12 A3012 RMK A01 T02530117  RH  042%=      5-min Rain = 0
KBO1 110901Z 20017KT 25/12 A3012 RMK A01 T02530116  RH  042%=      5-min Rain = 0
KBO1 110902Z 20015KT 26/12 A3012 RMK A01 T02550116  RH  042%=      5-min Rain = 0
KBO1 110903Z 20015KT 26/12 A3012 RMK A01 T02550116  RH  042%=      5-min Rain = 0
KBO1 110904Z 20015KT 26/12 A3012 RMK A01 T02550116  RH  042%=      5-min Rain = 0
KBO1 110905Z 20015KT 25/12 A3012 RMK A01 T02540116  RH  042%=      5-min Rain = 0
KBO1 110906Z 20015KT 25/12 A3012 RMK A01 T02540116  RH  042%=      5-min Rain = 0
KBO1 110907Z 20016KT 25/12 A3012 RMK A01 T02540116  RH  042%=      5-min Rain = 0
KBO1 110908Z 20016KT 25/12 A3012 RMK A01 T02540116  RH  042%=      5-min Rain = 0
KBO1 110909Z 20015KT 25/12 A3012 RMK A01 T02540116  RH  042%=      5-min Rain = 0
KBO1 110910Z 20016KT 25/12 A3012 RMK A01 T02540116  RH  042%=      5-min Rain = 0
KBO1 110911Z 20015KT 25/12 A3012 RMK A01 T02540116  RH  042%=      5-min Rain = 0
KBO1 110912Z 20015KT 25/12 A3012 RMK A01 T02530116  RH  042%=      5-min Rain = 0
KBO1 110913Z 20015KT 25/12 A3012 RMK A01 T02520116  RH  043%=      5-min Rain = 0
KBO1 110914Z 20015KT 25/12 A3012 RMK A01 T02510116  RH  043%=      5-min Rain = 0
KBO1 110915Z 20015KT 25/12 A3012 RMK A01 T02510116  RH  043%=      5-min Rain = 0
KBO1 110916Z 20014KT 25/12 A3012 RMK A01 T02500116  RH  043%=      5-min Rain = 0
KBO1 110917Z 20015KT 25/12 A3012 RMK A01 T02490117  RH  043%=      5-min Rain = 0
KBO1 110918Z 20014KT 25/12 A3012 RMK A01 T02490117  RH  044%=      5-min Rain = 0
KBO1 110919Z 20014KT 25/12 A3012 RMK A01 T02480117  RH  044%=      5-min Rain = 0
KBO1 110920Z 20015KT 25/12 A3012 RMK A01 T02480117  RH  044%=      5-min Rain = 0
KBO1 110921Z 20015KT 25/12 A3012 RMK A01 T02470117  RH  044%=      5-min Rain = 0
KBO1 110922Z 20014KT 25/12 A3012 RMK A01 T02470117  RH  044%=      5-min Rain = 0
KBO1 110923Z 20014KT 25/12 A3012 RMK A01 T02460117  RH  044%=      5-min Rain = 0
KBO1 110924Z 20014KT 25/12 A3012 RMK A01 T02460117  RH  044%=      5-min Rain = 0
KBO1 110925Z 20014KT 25/12 A3012 RMK A01 T02460117  RH  045%=      5-min Rain = 0
KBO1 110926Z 20014KT 25/12 A3013 RMK A01 T02450117  RH  045%=      5-min Rain = 0
KBO1 110927Z 20014KT 25/12 A3013 RMK A01 T02450118  RH  045%=      5-min Rain = 0
KBO1 110928Z 20014KT 25/12 A3013 RMK A01 T02450118  RH  045%=      5-min Rain = 0
KBO1 110929Z 20014KT 24/12 A3013 RMK A01 T02440118  RH  045%=      5-min Rain = 0
KBO1 110930Z 20014KT 24/12 A3013 RMK A01 T02440117  RH  045%=      5-min Rain = 0
KBO1 110931Z 20014KT 24/12 A3013 RMK A01 T02440118  RH  045%=      5-min Rain = 0
KBO1 110932Z 20014KT 24/12 A3013 RMK A01 T02430118  RH  045%=      5-min Rain = 0
KBO1 110933Z 20014KT 24/12 A3013 RMK A01 T02420118  RH  046%=      5-min Rain = 0
KBO1 110934Z 20014KT 24/12 A3013 RMK A01 T02420118  RH  046%=      5-min Rain = 0
KBO1 110935Z 20013KT 24/12 A3013 RMK A01 T02410118  RH  046%=      5-min Rain = 0
KBO1 110936Z 20013KT 24/12 A3013 RMK A01 T02410118  RH  046%=      5-min Rain = 0
KBO1 110937Z 20013KT 24/12 A3013 RMK A01 T02400118  RH  046%=      5-min Rain = 0
KBO1 110938Z 20014KT 24/12 A3013 RMK A01 T02390118  RH  047%=      5-min Rain = 0
KBO1 110939Z 20013KT 24/12 A3013 RMK A01 T02390118  RH  047%=      5-min Rain = 0
KBO1 110940Z 20013KT 24/12 A3013 RMK A01 T02390118  RH  047%=      5-min Rain = 0
KBO1 110941Z 20013KT 24/12 A3013 RMK A01 T02390118  RH  047%=      5-min Rain = 0
KBO1 110942Z 20013KT 24/12 A3013 RMK A01 T02390119  RH  047%=      5-min Rain = 0
KBO1 110943Z 20012KT 24/12 A3013 RMK A01 T02380118  RH  047%=      5-min Rain = 0
KBO1 110944Z 20012KT 24/12 A3013 RMK A01 T02370119  RH  047%=      5-min Rain = 0
KBO1 110945Z 20012KT 24/12 A3013 RMK A01 T02360119  RH  048%=      5-min Rain = 0
KBO1 110946Z 20012KT 24/12 A3013 RMK A01 T02360119  RH  048%=      5-min Rain = 0
KBO1 110947Z 20012KT 24/12 A3013 RMK A01 T02350120  RH  048%=      5-min Rain = 0
KBO1 110948Z 20012KT 24/12 A3013 RMK A01 T02350119  RH  048%=      5-min Rain = 0
KBO1 110949Z 19012KT 24/12 A3013 RMK A01 T02350120  RH  048%=      5-min Rain = 0
KBO1 110950Z 19012KT 24/12 A3013 RMK A01 T02350120  RH  048%=      5-min Rain = 0
KBO1 110951Z 19011KT 24/12 A3013 RMK A01 T02350120  RH  048%=      5-min Rain = 0
KBO1 110952Z 19011KT 24/12 A3013 RMK A01 T02350120  RH  049%=      5-min Rain = 0
KBO1 110953Z 19011KT 23/12 A3013 RMK A01 T02340120  RH  049%=      5-min Rain = 0
KBO1 110954Z 19011KT 23/12 A3013 RMK A01 T02340120  RH  049%=      5-min Rain = 0
KBO1 110955Z 19010KT 23/12 A3013 RMK A01 T02340120  RH  049%=      5-min Rain = 0
KBO1 110956Z 19011KT 23/12 A3013 RMK A01 T02330120  RH  049%=      5-min Rain = 0
KBO1 110957Z 19010KT 23/12 A3013 RMK A01 T02320120  RH  049%=      5-min Rain = 0
KBO1 110958Z 19011KT 23/12 A3013 RMK A01 T02310120  RH  050%=      5-min Rain = 0
KBO1 110959Z 19011KT 23/12 A3013 RMK A01 T02300120  RH  050%=      5-min Rain = 0
KBO1 111000Z 19011KT 23/12 A3013 RMK A01 T02290121  RH  050%=      5-min Rain = 0
KBO1 111001Z 19011KT 23/12 A3013 RMK A01 T02290121  RH  050%=      5-min Rain = 0
KBO1 111002Z 19011KT 23/12 A3013 RMK A01 T02300121  RH  050%=      5-min Rain = 0
KBO1 111003Z 19011KT 23/12 A3013 RMK A01 T02290121  RH  050%=      5-min Rain = 0
KBO1 111004Z 19012KT 23/12 A3013 RMK A01 T02300121  RH  050%=      5-min Rain = 0
KBO1 111005Z 19012KT 23/12 A3013 RMK A01 T02300121  RH  050%=      5-min Rain = 0
KBO1 111006Z 19012KT 23/12 A3013 RMK A01 T02310121  RH  050%=      5-min Rain = 0
KBO1 111007Z 19012KT 23/12 A3013 RMK A01 T02320122  RH  050%=      5-min Rain = 0
KBO1 111008Z 19012KT 23/12 A3013 RMK A01 T02320122  RH  050%=      5-min Rain = 0
KBO1 111009Z 19012KT 23/12 A3013 RMK A01 T02330122  RH  050%=      5-min Rain = 0
KBO1 111010Z 19012KT 23/12 A3013 RMK A01 T02320122  RH  050%=      5-min Rain = 0
KBO1 111011Z 19012KT 23/12 A3013 RMK A01 T02310122  RH  050%=      5-min Rain = 0
KBO1 111012Z 19012KT 23/12 A3013 RMK A01 T02310122  RH  050%=      5-min Rain = 0
KBO1 111013Z 19013KT 23/12 A3013 RMK A01 T02300122  RH  050%=      5-min Rain = 0
KBO1 111014Z 20013KT 23/12 A3013 RMK A01 T02300122  RH  051%=      5-min Rain = 0
KBO1 111015Z 20013KT 23/12 A3014 RMK A01 T02290122  RH  051%=      5-min Rain = 0
KBO1 111016Z 20013KT 23/12 A3014 RMK A01 T02290122  RH  051%=      5-min Rain = 0
KBO1 111017Z 19013KT 23/12 A3014 RMK A01 T02290122  RH  051%=      5-min Rain = 0
KBO1 111018Z 19012KT 23/12 A3014 RMK A01 T02280122  RH  051%=      5-min Rain = 0
KBO1 111019Z 19012KT 23/12 A3014 RMK A01 T02270122  RH  051%=      5-min Rain = 0
KBO1 111020Z 19012KT 23/12 A3014 RMK A01 T02270123  RH  052%=      5-min Rain = 0
KBO1 111021Z 19012KT 23/12 A3014 RMK A01 T02270123  RH  052%=      5-min Rain = 0
KBO1 111022Z 19011KT 23/12 A3014 RMK A01 T02270122  RH  051%=      5-min Rain = 0
KBO1 111023Z 19011KT 23/12 A3014 RMK A01 T02280123  RH  051%=      5-min Rain = 0
KBO1 111024Z 19011KT 23/12 A3014 RMK A01 T02280123  RH  051%=      5-min Rain = 0
KBO1 111025Z 19011KT 23/12 A3014 RMK A01 T02280123  RH  051%=      5-min Rain = 0
KBO1 111026Z 19011KT 23/12 A3014 RMK A01 T02280123  RH  051%=      5-min Rain = 0
KBO1 111027Z 19010KT 23/12 A3014 RMK A01 T02280123  RH  052%=      5-min Rain = 0
KBO1 111028Z 19010KT 23/12 A3014 RMK A01 T02270123  RH  052%=      5-min Rain = 0
KBO1 111029Z 20011KT 23/12 A3014 RMK A01 T02260123  RH  052%=      5-min Rain = 0
KBO1 111030Z 20010KT 23/12 A3014 RMK A01 T02250123  RH  052%=      5-min Rain = 0
KBO1 111031Z 20011KT 22/12 A3014 RMK A01 T02240124  RH  053%=      5-min Rain = 0
KBO1 111032Z 20012KT 22/12 A3014 RMK A01 T02230124  RH  053%=      5-min Rain = 0
KBO1 111033Z 20012KT 22/12 A3014 RMK A01 T02230124  RH  053%=      5-min Rain = 0
KBO1 111034Z 20012KT 22/12 A3014 RMK A01 T02240124  RH  053%=      5-min Rain = 0
KBO1 111035Z 20013KT 23/13 A3014 RMK A01 T02250125  RH  053%=      5-min Rain = 0
KBO1 111036Z 20013KT 23/13 A3013 RMK A01 T02270125  RH  053%=      5-min Rain = 0
KBO1 111037Z 20013KT 23/13 A3013 RMK A01 T02280126  RH  052%=      5-min Rain = 0
KBO1 111038Z 20013KT 23/13 A3013 RMK A01 T02290126  RH  052%=      5-min Rain = 0
KBO1 111039Z 20013KT 23/13 A3013 RMK A01 T02290126  RH  052%=      5-min Rain = 0
KBO1 111040Z 20013KT 23/13 A3013 RMK A01 T02300126  RH  052%=      5-min Rain = 0
KBO1 111041Z 20013KT 23/13 A3014 RMK A01 T02300127  RH  052%=      5-min Rain = 0
KBO1 111042Z 20012KT 23/13 A3014 RMK A01 T02300126  RH  052%=      5-min Rain = 0
KBO1 111043Z 20011KT 23/13 A3014 RMK A01 T02300126  RH  052%=      5-min Rain = 0
KBO1 111044Z 20012KT 23/13 A3014 RMK A01 T02300126  RH  052%=      5-min Rain = 0
KBO1 111045Z 20011KT 23/13 A3014 RMK A01 T02300126  RH  052%=      5-min Rain = 0
KBO1 111046Z 20011KT 23/13 A3014 RMK A01 T02300127  RH  052%=      5-min Rain = 0
KBO1 111047Z 20011KT 23/13 A3014 RMK A01 T02290127  RH  052%=      5-min Rain = 0
KBO1 111048Z 21010KT 23/13 A3014 RMK A01 T02280127  RH  053%=      5-min Rain = 0
KBO1 111049Z 21010KT 23/13 A3014 RMK A01 T02270126  RH  053%=      5-min Rain = 0
KBO1 111050Z 21009KT 23/13 A3014 RMK A01 T02260126  RH  053%=      5-min Rain = 0
KBO1 111051Z 22010KT 23/13 A3014 RMK A01 T02250126  RH  054%=      5-min Rain = 0
KBO1 111052Z 22009KT 22/13 A3014 RMK A01 T02240127  RH  054%=      5-min Rain = 0
KBO1 111053Z 22010KT 22/13 A3014 RMK A01 T02230127  RH  054%=      5-min Rain = 0
KBO1 111054Z 22010KT 22/13 A3015 RMK A01 T02230127  RH  054%=      5-min Rain = 0
KBO1 111055Z 22010KT 22/13 A3015 RMK A01 T02230127  RH  055%=      5-min Rain = 0
KBO1 111056Z 22010KT 22/13 A3015 RMK A01 T02230128  RH  055%=      5-min Rain = 0
KBO1 111057Z 22010KT 22/13 A3015 RMK A01 T02230128  RH  055%=      5-min Rain = 0
KBO1 111058Z 22010KT 22/13 A3015 RMK A01 T02230128  RH  055%=      5-min Rain = 0
KBO1 111059Z 22010KT 22/13 A3015 RMK A01 T02220129  RH  055%=      5-min Rain = 0
KBO1 111100Z 22010KT 22/13 A3015 RMK A01 T02220129  RH  056%=      5-min Rain = 0
KBO1 111101Z 22010KT 22/13 A3015 RMK A01 T02210129  RH  056%=      5-min Rain = 0
KBO1 111102Z 22011KT 22/13 A3015 RMK A01 T02200130  RH  056%=      5-min Rain = 0
KBO1 111103Z 21011KT 22/13 A3015 RMK A01 T02190130  RH  057%=      5-min Rain = 0
KBO1 111104Z 21011KT 22/13 A3015 RMK A01 T02190130  RH  057%=      5-min Rain = 0
KBO1 111105Z 21011KT 22/13 A3015 RMK A01 T02190130  RH  057%=      5-min Rain = 0
KBO1 111106Z 21011KT 22/13 A3015 RMK A01 T02200130  RH  057%=      5-min Rain = 0
KBO1 111107Z 21011KT 22/13 A3015 RMK A01 T02200130  RH  057%=      5-min Rain = 0
KBO1 111108Z 21011KT 22/13 A3015 RMK A01 T02200130  RH  056%=      5-min Rain = 0
KBO1 111109Z 21011KT 22/13 A3015 RMK A01 T02200130  RH  056%=      5-min Rain = 0
KBO1 111110Z 21012KT 22/13 A3015 RMK A01 T02200130  RH  057%=      5-min Rain = 0
KBO1 111111Z 22012KT 22/13 A3015 RMK A01 T02200131  RH  057%=      5-min Rain = 0
KBO1 111112Z 22012KT 22/13 A3015 RMK A01 T02200131  RH  057%=      5-min Rain = 0
KBO1 111113Z 21012KT 22/13 A3015 RMK A01 T02210131  RH  057%=      5-min Rain = 0
KBO1 111114Z 22012KT 22/13 A3015 RMK A01 T02220132  RH  057%=      5-min Rain = 0
KBO1 111115Z 22012KT 22/13 A3015 RMK A01 T02220132  RH  057%=      5-min Rain = 0
KBO1 111116Z 22012KT 22/13 A3015 RMK A01 T02220132  RH  057%=      5-min Rain = 0
KBO1 111117Z 22012KT 22/13 A3015 RMK A01 T02220132  RH  057%=      5-min Rain = 0
KBO1 111118Z 21012KT 22/13 A3015 RMK A01 T02220133  RH  057%=      5-min Rain = 0
KBO1 111119Z 21012KT 22/13 A3015 RMK A01 T02220133  RH  057%=      5-min Rain = 0
KBO1 111120Z 21013KT 22/13 A3015 RMK A01 T02230133  RH  057%=      5-min Rain = 0
KBO1 111121Z 21013KT 22/13 A3015 RMK A01 T02230133  RH  057%=      5-min Rain = 0
KBO1 111122Z 21013KT 22/13 A3015 RMK A01 T02240134  RH  057%=      5-min Rain = 0
KBO1 111123Z 21013KT 23/13 A3015 RMK A01 T02250134  RH  056%=      5-min Rain = 0
KBO1 111124Z 22013KT 23/13 A3015 RMK A01 T02260134  RH  056%=      5-min Rain = 0
KBO1 111125Z 22013KT 23/14 A3015 RMK A01 T02270135  RH  056%=      5-min Rain = 0
KBO1 111126Z 21013KT 23/14 A3015 RMK A01 T02270135  RH  056%=      5-min Rain = 0
KBO1 111127Z 21012KT 23/14 A3015 RMK A01 T02280135  RH  056%=      5-min Rain = 0
KBO1 111128Z 22012KT 23/14 A3015 RMK A01 T02270135  RH  056%=      5-min Rain = 0
KBO1 111129Z 22013KT 23/14 A3015 RMK A01 T02280135  RH  056%=      5-min Rain = 0
KBO1 111130Z 22013KT 23/14 A3015 RMK A01 T02280136  RH  056%=      5-min Rain = 0
KBO1 111131Z 22013KT 23/14 A3015 RMK A01 T02290136  RH  056%=      5-min Rain = 0
KBO1 111132Z 22012KT 23/14 A3015 RMK A01 T02290136  RH  056%=      5-min Rain = 0
KBO1 111133Z 22013KT 23/14 A3015 RMK A01 T02290136  RH  056%=      5-min Rain = 0
KBO1 111134Z 22013KT 23/14 A3015 RMK A01 T02300136  RH  056%=      5-min Rain = 0
KBO1 111135Z 22012KT 23/14 A3015 RMK A01 T02300137  RH  056%=      5-min Rain = 0
KBO1 111136Z 22011KT 23/14 A3015 RMK A01 T02290137  RH  056%=      5-min Rain = 0
KBO1 111137Z 22012KT 23/14 A3015 RMK A01 T02290137  RH  056%=      5-min Rain = 0
KBO1 111138Z 22012KT 23/14 A3015 RMK A01 T02290137  RH  056%=      5-min Rain = 0
KBO1 111139Z 21012KT 23/14 A3015 RMK A01 T02290137  RH  056%=      5-min Rain = 0
KBO1 111140Z 21012KT 23/14 A3015 RMK A01 T02290137  RH  056%=      5-min Rain = 0
KBO1 111141Z 22012KT 23/14 A3015 RMK A01 T02290137  RH  056%=      5-min Rain = 0
KBO1 111142Z 21012KT 23/14 A3015 RMK A01 T02290137  RH  056%=      5-min Rain = 0
KBO1 111143Z 21012KT 23/14 A3015 RMK A01 T02290137  RH  056%=      5-min Rain = 0
KBO1 111144Z 21013KT 23/14 A3015 RMK A01 T02290137  RH  056%=      5-min Rain = 0
KBO1 111145Z 21013KT 23/14 A3015 RMK A01 T02300138  RH  056%=      5-min Rain = 0
KBO1 111146Z 21013KT 23/14 A3015 RMK A01 T02310138  RH  056%=      5-min Rain = 0
KBO1 111147Z 21014KT 23/14 A3015 RMK A01 T02320138  RH  055%=      5-min Rain = 0
KBO1 111148Z 21013KT 23/14 A3015 RMK A01 T02320138  RH  055%=      5-min Rain = 0
KBO1 111149Z 21013KT 23/14 A3015 RMK A01 T02330138  RH  055%=      5-min Rain = 0
KBO1 111150Z 22013KT 23/14 A3015 RMK A01 T02330138  RH  055%=      5-min Rain = 0
KBO1 111151Z 22012KT 23/14 A3015 RMK A01 T02340139  RH  055%=      5-min Rain = 0
KBO1 111152Z 22012KT 23/14 A3016 RMK A01 T02330139  RH  055%=      5-min Rain = 0
KBO1 111153Z 21013KT 23/14 A3016 RMK A01 T02330139  RH  055%=      5-min Rain = 0
KBO1 111154Z 22013KT 23/14 A3016 RMK A01 T02330139  RH  055%=      5-min Rain = 0
KBO1 111155Z 22013KT 23/14 A3016 RMK A01 T02330139  RH  055%=      5-min Rain = 0
KBO1 111156Z 22013KT 23/14 A3016 RMK A01 T02330139  RH  055%=      5-min Rain = 0
KBO1 111157Z 22012KT 23/14 A3016 RMK A01 T02340139  RH  055%=      5-min Rain = 0
KBO1 111158Z 22012KT 23/14 A3016 RMK A01 T02340139  RH  055%=      5-min Rain = 0
KBO1 111159Z 22012KT 23/14 A3016 RMK A01 T02340139  RH  055%=      5-min Rain = 0
KBO1 111200Z 22011KT 23/14 A3016 RMK A01 T02340139  RH  055%=      5-min Rain = 0
KBO1 111201Z 22012KT 24/14 A3016 RMK A01 T02350140  RH  055%=      5-min Rain = 0
KBO1 111202Z 22012KT 23/14 A3016 RMK A01 T02340139  RH  055%=      5-min Rain = 0
KBO1 111203Z 22012KT 23/14 A3016 RMK A01 T02340139  RH  055%=      5-min Rain = 0
KBO1 111204Z 22013KT 24/14 A3016 RMK A01 T02350140  RH  055%=      5-min Rain = 0
KBO1 111205Z 22013KT 24/14 A3016 RMK A01 T02350140  RH  055%=      5-min Rain = 0
KBO1 111206Z 21013KT 24/14 A3016 RMK A01 T02360140  RH  055%=      5-min Rain = 0
KBO1 111207Z 22014KT 24/14 A3016 RMK A01 T02370141  RH  055%=      5-min Rain = 0
KBO1 111208Z 22014KT 24/14 A3016 RMK A01 T02370141  RH  055%=      5-min Rain = 0
KBO1 111209Z 22014KT 24/14 A3016 RMK A01 T02380141  RH  054%=      5-min Rain = 0
KBO1 111210Z 22013KT 24/14 A3016 RMK A01 T02390141  RH  054%=      5-min Rain = 0
KBO1 111211Z 21014KT 24/14 A3016 RMK A01 T02390141  RH  054%=      5-min Rain = 0
KBO1 111212Z 21013KT 24/14 A3016 RMK A01 T02390141  RH  054%=      5-min Rain = 0
KBO1 111213Z 21013KT 24/14 A3016 RMK A01 T02390141  RH  054%=      5-min Rain = 0
KBO1 111214Z 21013KT 24/14 A3016 RMK A01 T02380141  RH  055%=      5-min Rain = 0
KBO1 111215Z 21013KT 24/14 A3016 RMK A01 T02380142  RH  055%=      5-min Rain = 0
KBO1 111216Z 21012KT 24/14 A3016 RMK A01 T02380142  RH  055%=      5-min Rain = 0
KBO1 111217Z 21013KT 24/14 A3016 RMK A01 T02380141  RH  055%=      5-min Rain = 0
KBO1 111218Z 21012KT 24/14 A3016 RMK A01 T02380141  RH  054%=      5-min Rain = 0
KBO1 111219Z 21013KT 24/14 A3016 RMK A01 T02380141  RH  054%=      5-min Rain = 0
KBO1 111220Z 21013KT 24/14 A3016 RMK A01 T02380141  RH  055%=      5-min Rain = 0
KBO1 111221Z 21013KT 24/14 A3016 RMK A01 T02390141  RH  054%=      5-min Rain = 0
KBO1 111222Z 21013KT 24/14 A3016 RMK A01 T02390141  RH  054%=      5-min Rain = 0
KBO1 111223Z 21013KT 24/14 A3016 RMK A01 T02400141  RH  054%=      5-min Rain = 0
KBO1 111224Z 22012KT 24/14 A3016 RMK A01 T02420142  RH  054%=      5-min Rain = 0
KBO1 111225Z 21012KT 24/14 A3016 RMK A01 T02420142  RH  053%=      5-min Rain = 0
KBO1 111226Z 21014KT 24/14 A3016 RMK A01 T02440142  RH  053%=      5-min Rain = 0
KBO1 111227Z 21014KT 25/14 A3016 RMK A01 T02450142  RH  053%=      5-min Rain = 0
KBO1 111228Z 21013KT 25/14 A3016 RMK A01 T02450142  RH  053%=      5-min Rain = 0
KBO1 111229Z 21014KT 25/14 A3016 RMK A01 T02460143  RH  053%=      5-min Rain = 0
KBO1 111230Z 21014KT 25/14 A3016 RMK A01 T02470143  RH  052%=      5-min Rain = 0
KBO1 111231Z 21013KT 25/14 A3016 RMK A01 T02470143  RH  052%=      5-min Rain = 0
KBO1 111232Z 21014KT 25/14 A3016 RMK A01 T02480143  RH  052%=      5-min Rain = 0
KBO1 111233Z 21013KT 25/14 A3016 RMK A01 T02490143  RH  052%=      5-min Rain = 0
KBO1 111234Z 21014KT 25/14 A3016 RMK A01 T02490143  RH  052%=      5-min Rain = 0
KBO1 111235Z 21012KT 25/14 A3016 RMK A01 T02500143  RH  051%=      5-min Rain = 0
KBO1 111236Z 22014KT 25/14 A3016 RMK A01 T02500143  RH  051%=      5-min Rain = 0
KBO1 111237Z 21014KT 25/14 A3016 RMK A01 T02510143  RH  051%=      5-min Rain = 0
KBO1 111238Z 21014KT 25/14 A3016 RMK A01 T02510143  RH  051%=      5-min Rain = 0
KBO1 111239Z 21015KT 25/14 A3016 RMK A01 T02520143  RH  051%=      5-min Rain = 0
KBO1 111240Z 22015KT 25/14 A3016 RMK A01 T02530143  RH  050%=      5-min Rain = 0
KBO1 111241Z 21015KT 25/14 A3016 RMK A01 T02540143  RH  050%=      5-min Rain = 0
KBO1 111242Z 21015KT 26/14 A3016 RMK A01 T02550143  RH  050%=      5-min Rain = 0
KBO1 111243Z 21016KT 26/14 A3016 RMK A01 T02550143  RH  050%=      5-min Rain = 0
KBO1 111244Z 21016KT 26/14 A3016 RMK A01 T02560143  RH  050%=      5-min Rain = 0
KBO1 111245Z 22015KT 26/14 A3016 RMK A01 T02560143  RH  050%=      5-min Rain = 0
KBO1 111246Z 22016KT 26/14 A3016 RMK A01 T02570143  RH  049%=      5-min Rain = 0
KBO1 111247Z 22016KT 26/14 A3016 RMK A01 T02580143  RH  049%=      5-min Rain = 0
KBO1 111248Z 22015KT 26/14 A3016 RMK A01 T02590144  RH  049%=      5-min Rain = 0
KBO1 111249Z 22017KT 26/14 A3016 RMK A01 T02590144  RH  049%=      5-min Rain = 0
KBO1 111250Z 21015KT 26/14 A3016 RMK A01 T02590144  RH  049%=      5-min Rain = 0
KBO1 111251Z 22015KT 26/14 A3016 RMK A01 T02590144  RH  049%=      5-min Rain = 0
KBO1 111252Z 22015KT 26/14 A3016 RMK A01 T02600144  RH  049%=      5-min Rain = 0
KBO1 111253Z 22014KT 26/15 A3016 RMK A01 T02600145  RH  049%=      5-min Rain = 0
KBO1 111254Z 21014KT 26/15 A3016 RMK A01 T02600145  RH  049%=      5-min Rain = 0
KBO1 111255Z 22014KT 26/15 A3016 RMK A01 T02600145  RH  049%=      5-min Rain = 0
KBO1 111256Z 22016KT 26/15 A3016 RMK A01 T02610145  RH  049%=      5-min Rain = 0
KBO1 111257Z 21014KT 26/15 A3016 RMK A01 T02610145  RH  049%=      5-min Rain = 0
KBO1 111258Z 21015KT 26/15 A3016 RMK A01 T02610145  RH  049%=      5-min Rain = 0
KBO1 111259Z 21013KT 26/15 A3016 RMK A01 T02610145  RH  049%=      5-min Rain = 0
KBO1 111300Z 21015KT 26/15 A3016 RMK A01 T02620146  RH  049%=      5-min Rain = 0
KBO1 111301Z 22016KT 26/15 A3016 RMK A01 T02630145  RH  048%=      5-min Rain = 0
KBO1 111302Z 21013KT 26/15 A3016 RMK A01 T02630146  RH  048%=      5-min Rain = 0
KBO1 111303Z 21015KT 26/15 A3016 RMK A01 T02630146  RH  048%=      5-min Rain = 0
KBO1 111304Z 21016KT 26/15 A3016 RMK A01 T02640146  RH  048%=      5-min Rain = 0
KBO1 111305Z 22015KT 26/15 A3016 RMK A01 T02640146  RH  048%=      5-min Rain = 0
KBO1 111306Z 21015KT 26/15 A3016 RMK A01 T02640146  RH  048%=      5-min Rain = 0
KBO1 111307Z 21015KT 27/15 A3016 RMK A01 T02650146  RH  048%=      5-min Rain = 0
KBO1 111308Z 21016KT 27/15 A3016 RMK A01 T02650146  RH  048%=      5-min Rain = 0
KBO1 111309Z 21014KT 27/15 A3016 RMK A01 T02650146  RH  048%=      5-min Rain = 0
KBO1 111310Z 21016KT 27/15 A3016 RMK A01 T02660147  RH  048%=      5-min Rain = 0
KBO1 111311Z 21016KT 27/15 A3017 RMK A01 T02660146  RH  048%=      5-min Rain = 0
KBO1 111312Z 21016KT 27/15 A3017 RMK A01 T02670147  RH  048%=      5-min Rain = 0
KBO1 111313Z 21015G20KT 27/15 A3017 RMK A01 T02670147  RH  048%=      5-min Rain = 0
KBO1 111314Z 21017KT 27/15 A3017 RMK A01 T02680147  RH  047%=      5-min Rain = 0
KBO1 111315Z 21015KT 27/15 A3016 RMK A01 T02690147  RH  047%=      5-min Rain = 0
KBO1 111316Z 21014KT 27/15 A3016 RMK A01 T02690148  RH  047%=      5-min Rain = 0
KBO1 111317Z 21013KT 27/15 A3016 RMK A01 T02690148  RH  047%=      5-min Rain = 0
KBO1 111318Z 21015KT 27/15 A3016 RMK A01 T02700148  RH  047%=      5-min Rain = 0
KBO1 111319Z 21015KT 27/15 A3016 RMK A01 T02700148  RH  047%=      5-min Rain = 0
KBO1 111320Z 21017KT 27/15 A3016 RMK A01 T02700147  RH  047%=      5-min Rain = 0
KBO1 111321Z 21014KT 27/15 A3017 RMK A01 T02710148  RH  047%=      5-min Rain = 0
KBO1 111322Z 21014KT 27/15 A3016 RMK A01 T02720149  RH  047%=      5-min Rain = 0
KBO1 111323Z 21016KT 27/15 A3017 RMK A01 T02720148  RH  047%=      5-min Rain = 0
KBO1 111324Z 21015KT 27/15 A3017 RMK A01 T02730149  RH  047%=      5-min Rain = 0
KBO1 111325Z 21019G25KT 27/15 A3016 RMK A01 T02740149  RH  046%=      5-min Rain = 0
KBO1 111326Z 21017KT 27/15 A3016 RMK A01 T02740147  RH  046%=      5-min Rain = 0
KBO1 111327Z 21016KT 28/15 A3016 RMK A01 T02750149  RH  046%=      5-min Rain = 0
KBO1 111328Z 22018KT 28/15 A3016 RMK A01 T02760149  RH  046%=      5-min Rain = 0
KBO1 111329Z 21017KT 28/15 A3016 RMK A01 T02760149  RH  046%=      5-min Rain = 0
KBO1 111330Z 21014KT 28/15 A3017 RMK A01 T02770150  RH  046%=      5-min Rain = 0
KBO1 111331Z 21017KT 28/15 A3016 RMK A01 T02770150  RH  046%=      5-min Rain = 0
KBO1 111332Z 21016KT 28/15 A3016 RMK A01 T02780149  RH  045%=      5-min Rain = 0
KBO1 111333Z 21016KT 28/15 A3016 RMK A01 T02780150  RH  046%=      5-min Rain = 0
KBO1 111334Z 21014KT 28/15 A3016 RMK A01 T02780150  RH  046%=      5-min Rain = 0
KBO1 111335Z 21015KT 28/15 A3016 RMK A01 T02790151  RH  046%=      5-min Rain = 0
KBO1 111336Z 21016KT 28/15 A3016 RMK A01 T02790150  RH  045%=      5-min Rain = 0
KBO1 111337Z 21016KT 28/15 A3016 RMK A01 T02790150  RH  045%=      5-min Rain = 0
KBO1 111338Z 21016KT 28/15 A3016 RMK A01 T02790149  RH  045%=      5-min Rain = 0
KBO1 111339Z 21016KT 28/15 A3016 RMK A01 T02800149  RH  045%=      5-min Rain = 0
KBO1 111340Z 21016KT 28/15 A3016 RMK A01 T02800150  RH  045%=      5-min Rain = 0
KBO1 111341Z 21014KT 28/15 A3016 RMK A01 T02800149  RH  045%=      5-min Rain = 0
KBO1 111342Z 22016KT 28/15 A3016 RMK A01 T02810150  RH  045%=      5-min Rain = 0
KBO1 111343Z 22015KT 28/15 A3017 RMK A01 T02810150  RH  045%=      5-min Rain = 0
KBO1 111344Z 22015KT 28/15 A3017 RMK A01 T02820151  RH  045%=      5-min Rain = 0
KBO1 111345Z 22015KT 28/15 A3017 RMK A01 T02830150  RH  044%=      5-min Rain = 0
KBO1 111346Z 21017KT 28/15 A3017 RMK A01 T02830150  RH  044%=      5-min Rain = 0
KBO1 111347Z 21016KT 28/15 A3017 RMK A01 T02830150  RH  044%=      5-min Rain = 0
KBO1 111348Z 21017KT 28/15 A3017 RMK A01 T02840150  RH  044%=      5-min Rain = 0
KBO1 111349Z 21019KT 28/15 A3017 RMK A01 T02830149  RH  044%=      5-min Rain = 0
KBO1 111350Z 21018KT 28/15 A3017 RMK A01 T02830149  RH  044%=      5-min Rain = 0
KBO1 111351Z 21018KT 28/15 A3017 RMK A01 T02830149  RH  044%=      5-min Rain = 0
KBO1 111352Z 21018KT 28/15 A3017 RMK A01 T02830149  RH  044%=      5-min Rain = 0
KBO1 111353Z 21019KT 28/15 A3017 RMK A01 T02830149  RH  044%=      5-min Rain = 0
KBO1 111354Z 21017KT 28/15 A3017 RMK A01 T02830148  RH  044%=      5-min Rain = 0
KBO1 111355Z 21018KT 28/15 A3017 RMK A01 T02840150  RH  044%=      5-min Rain = 0
KBO1 111356Z 22017KT 28/15 A3017 RMK A01 T02840150  RH  044%=      5-min Rain = 0
KBO1 111357Z 21016KT 29/15 A3017 RMK A01 T02850151  RH  044%=      5-min Rain = 0
KBO1 111358Z 21015KT 29/15 A3017 RMK A01 T02860150  RH  043%=      5-min Rain = 0
KBO1 111359Z 21016KT 29/15 A3017 RMK A01 T02880152  RH  044%=      5-min Rain = 0
KBO1 111400Z 22016KT 29/15 A3017 RMK A01 T02890152  RH  043%=      5-min Rain = 0
KBO1 111401Z 21017KT 29/15 A3017 RMK A01 T02890151  RH  043%=      5-min Rain = 0
KBO1 111402Z 21015KT 29/15 A3017 RMK A01 T02890152  RH  043%=      5-min Rain = 0
KBO1 111403Z 21017KT 29/15 A3017 RMK A01 T02900153  RH  043%=      5-min Rain = 0
KBO1 111404Z 21018KT 29/15 A3017 RMK A01 T02900151  RH  043%=      5-min Rain = 0
KBO1 111405Z 22019KT 29/15 A3017 RMK A01 T02900152  RH  043%=      5-min Rain = 0
KBO1 111406Z 21018KT 29/15 A3017 RMK A01 T02890151  RH  043%=      5-min Rain = 0
KBO1 111407Z 22019KT 29/15 A3017 RMK A01 T02890151  RH  043%=      5-min Rain = 0
KBO1 111408Z 22018G23KT 29/15 A3017 RMK A01 T02890151  RH  043%=      5-min Rain = 0
KBO1 111409Z 21021KT 29/15 A3017 RMK A01 T02890150  RH  043%=      5-min Rain = 0
KBO1 111410Z 22021KT 29/15 A3017 RMK A01 T02880149  RH  043%=      5-min Rain = 0
KBO1 111411Z 22015KT 29/15 A3017 RMK A01 T02890150  RH  043%=      5-min Rain = 0
KBO1 111412Z 22016KT 29/15 A3017 RMK A01 T02910152  RH  043%=      5-min Rain = 0
KBO1 111413Z 23017KT 29/15 A3017 RMK A01 T02930152  RH  042%=      5-min Rain = 0
KBO1 111414Z 22018KT 29/15 A3017 RMK A01 T02940151  RH  042%=      5-min Rain = 0
KBO1 111415Z 22021KT 29/15 A3017 RMK A01 T02940150  RH  042%=      5-min Rain = 0
KBO1 111416Z 23019KT 29/15 A3017 RMK A01 T02930150  RH  042%=      5-min Rain = 0
KBO1 111417Z 22020KT 29/15 A3017 RMK A01 T02940150  RH  042%=      5-min Rain = 0
KBO1 111418Z 22019KT 30/15 A3017 RMK A01 T02950151  RH  042%=      5-min Rain = 0
KBO1 111419Z 22020KT 30/15 A3017 RMK A01 T02950150  RH  041%=      5-min Rain = 0
KBO1 111420Z 22017KT 29/15 A3017 RMK A01 T02940150  RH  042%=      5-min Rain = 0
KBO1 111421Z 22017KT 30/15 A3017 RMK A01 T02950151  RH  042%=      5-min Rain = 0
KBO1 111422Z 22017KT 30/15 A3017 RMK A01 T02960151  RH  041%=      5-min Rain = 0
KBO1 111423Z 21017G22KT 30/15 A3017 RMK A01 T02980153  RH  041%=      5-min Rain = 0
KBO1 111424Z 21019KT 30/15 A3017 RMK A01 T02990150  RH  041%=      5-min Rain = 0
KBO1 111425Z 21021KT 30/15 A3017 RMK A01 T02970150  RH  041%=      5-min Rain = 0
KBO1 111426Z 21020KT 30/15 A3017 RMK A01 T02960150  RH  041%=      5-min Rain = 0
KBO1 111427Z 21020KT 30/15 A3017 RMK A01 T02970150  RH  041%=      5-min Rain = 0
KBO1 111428Z 21020KT 30/15 A3017 RMK A01 T02970149  RH  041%=      5-min Rain = 0
KBO1 111429Z 22017KT 30/15 A3017 RMK A01 T02970149  RH  041%=      5-min Rain = 0
KBO1 111430Z 21017KT 30/15 A3017 RMK A01 T02980150  RH  041%=      5-min Rain = 0
KBO1 111431Z 21017KT 30/15 A3017 RMK A01 T02990150  RH  040%=      5-min Rain = 0
KBO1 111432Z 21016KT 30/15 A3017 RMK A01 T03000151  RH  040%=      5-min Rain = 0
KBO1 111433Z 22016KT 30/15 A3017 RMK A01 T03010152  RH  040%=      5-min Rain = 0
KBO1 111434Z 21019KT 30/15 A3017 RMK A01 T03020150  RH  040%=      5-min Rain = 0
KBO1 111435Z 21021KT 30/15 A3017 RMK A01 T03020149  RH  039%=      5-min Rain = 0
KBO1 111436Z 22020KT 30/15 A3017 RMK A01 T03020150  RH  040%=      5-min Rain = 0
KBO1 111437Z 21020KT 30/15 A3017 RMK A01 T03010150  RH  040%=      5-min Rain = 0
KBO1 111438Z 22018KT 30/15 A3017 RMK A01 T03010148  RH  039%=      5-min Rain = 0
KBO1 111439Z 21016KT 30/15 A3017 RMK A01 T03020150  RH  040%=      5-min Rain = 0
KBO1 111440Z 21015KT 30/15 A3017 RMK A01 T03040152  RH  040%=      5-min Rain = 0
KBO1 111441Z 21015KT 31/15 A3017 RMK A01 T03050151  RH  039%=      5-min Rain = 0
KBO1 111442Z 21014KT 31/15 A3017 RMK A01 T03070153  RH  039%=      5-min Rain = 0
KBO1 111443Z 21016KT 31/15 A3017 RMK A01 T03080152  RH  039%=      5-min Rain = 0
KBO1 111444Z 20017KT 31/15 A3017 RMK A01 T03080151  RH  038%=      5-min Rain = 0
KBO1 111445Z 21019KT 31/15 A3017 RMK A01 T03090149  RH  038%=      5-min Rain = 0
KBO1 111446Z 21018KT 31/15 A3017 RMK A01 T03090149  RH  038%=      5-min Rain = 0
KBO1 111447Z 21020KT 31/15 A3017 RMK A01 T03100147  RH  037%=      5-min Rain = 0
KBO1 111448Z 21020KT 31/15 A3017 RMK A01 T03100146  RH  037%=      5-min Rain = 0
KBO1 111449Z 22020KT 31/15 A3017 RMK A01 T03100146  RH  037%=      5-min Rain = 0
KBO1 111450Z 22019KT 31/15 A3017 RMK A01 T03090145  RH  037%=      5-min Rain = 0
KBO1 111451Z 21014G19KT 31/15 A3017 RMK A01 T03100148  RH  037%=      5-min Rain = 0
KBO1 111452Z 22015KT 31/15 A3017 RMK A01 T03140150  RH  037%=      5-min Rain = 0
KBO1 111453Z 21017KT 32/15 A3017 RMK A01 T03150147  RH  036%=      5-min Rain = 0
KBO1 111454Z 22018KT 32/14 A3017 RMK A01 T03160144  RH  035%=      5-min Rain = 0
KBO1 111455Z 22016KT 32/15 A3017 RMK A01 T03150145  RH  036%=      5-min Rain = 0
KBO1 111456Z 22014KT 32/15 A3017 RMK A01 T03150149  RH  037%=      5-min Rain = 0
KBO1 111457Z 22015KT 32/14 A3017 RMK A01 T03180143  RH  035%=      5-min Rain = 0
KBO1 111458Z 22014KT 32/15 A3017 RMK A01 T03190146  RH  035%=      5-min Rain = 0
KBO1 111459Z 22015KT 32/15 A3017 RMK A01 T03200146  RH  035%=      5-min Rain = 0
KBO1 111500Z 22017KT 32/14 A3017 RMK A01 T03200143  RH  034%=      5-min Rain = 0
KBO1 111501Z 23017KT 32/14 A3017 RMK A01 T03180142  RH  034%=      5-min Rain = 0
KBO1 111502Z 22016KT 32/14 A3017 RMK A01 T03150144  RH  035%=      5-min Rain = 0
KBO1 111503Z 21018KT 31/14 A3017 RMK A01 T03140142  RH  035%=      5-min Rain = 0
KBO1 111504Z 22018KT 31/14 A3017 RMK A01 T03120140  RH  035%=      5-min Rain = 0
KBO1 111505Z 22016KT 31/14 A3017 RMK A01 T03100137  RH  035%=      5-min Rain = 0
KBO1 111506Z 23018KT 31/14 A3017 RMK A01 T03090137  RH  035%=      5-min Rain = 0
KBO1 111507Z 23018KT 31/14 A3017 RMK A01 T03100140  RH  036%=      5-min Rain = 0
KBO1 111508Z 22017KT 31/14 A3017 RMK A01 T03120139  RH  035%=      5-min Rain = 0
KBO1 111509Z 23015KT 31/14 A3017 RMK A01 T03140141  RH  035%=      5-min Rain = 0
KBO1 111510Z 22017KT 32/14 A3017 RMK A01 T03150141  RH  035%=      5-min Rain = 0
KBO1 111511Z 21015KT 32/14 A3017 RMK A01 T03160143  RH  035%=      5-min Rain = 0
KBO1 111512Z 22016KT 32/14 A3017 RMK A01 T03170143  RH  035%=      5-min Rain = 0
KBO1 111513Z 21018KT 32/14 A3017 RMK A01 T03170142  RH  034%=      5-min Rain = 0
KBO1 111514Z 21016G21KT 32/14 A3017 RMK A01 T03170141  RH  034%=      5-min Rain = 0
KBO1 111515Z 22019KT 32/14 A3017 RMK A01 T03170141  RH  034%=      5-min Rain = 0
KBO1 111516Z 22016KT 32/14 A3017 RMK A01 T03150142  RH  035%=      5-min Rain = 0
KBO1 111517Z 22013KT 32/14 A3017 RMK A01 T03150142  RH  035%=      5-min Rain = 0
KBO1 111518Z 22015KT 32/15 A3018 RMK A01 T03150145  RH  036%=      5-min Rain = 0
KBO1 111519Z 21017KT 32/15 A3017 RMK A01 T03180145  RH  035%=      5-min Rain = 0
KBO1 111520Z 22016KT 32/14 A3017 RMK A01 T03180144  RH  035%=      5-min Rain = 0
KBO1 111521Z 23014KT 32/14 A3018 RMK A01 T03190141  RH  034%=      5-min Rain = 0
KBO1 111522Z 23014KT 32/14 A3018 RMK A01 T03190144  RH  035%=      5-min Rain = 0
KBO1 111523Z 23013KT 32/14 A3018 RMK A01 T03210143  RH  034%=      5-min Rain = 0
KBO1 111524Z 22012KT 32/15 A3018 RMK A01 T03240146  RH  034%=      5-min Rain = 0
KBO1 111525Z 22013KT 33/15 A3018 RMK A01 T03250146  RH  034%=      5-min Rain = 0
KBO1 111526Z 23012KT 32/14 A3018 RMK A01 T03240143  RH  034%=      5-min Rain = 0
KBO1 111527Z 23013KT 32/14 A3018 RMK A01 T03240142  RH  033%=      5-min Rain = 0
KBO1 111528Z 23016KT 32/14 A3018 RMK A01 T03240141  RH  033%=      5-min Rain = 0
KBO1 111529Z 24011KT 32/14 A3018 RMK A01 T03230140  RH  033%=      5-min Rain = 0
KBO1 111530Z 25010KT 32/14 A3018 RMK A01 T03240142  RH  033%=      5-min Rain = 0
KBO1 111531Z 24011G16KT 33/14 A3018 RMK A01 T03260143  RH  033%=      5-min Rain = 0
KBO1 111532Z 23012KT 33/14 A3018 RMK A01 T03290142  RH  032%=      5-min Rain = 0
KBO1 111533Z 23010KT 33/14 A3018 RMK A01 T03280143  RH  033%=      5-min Rain = 0
KBO1 111534Z 22012KT 33/14 A3018 RMK A01 T03280143  RH  033%=      5-min Rain = 0
KBO1 111535Z 23015KT 33/14 A3018 RMK A01 T03290142  RH  032%=      5-min Rain = 0
KBO1 111536Z 22012KT 33/14 A3018 RMK A01 T03290137  RH  031%=      5-min Rain = 0
KBO1 111537Z 23012KT 33/14 A3018 RMK A01 T03280139  RH  032%=      5-min Rain = 0
KBO1 111538Z 21014KT 33/14 A3018 RMK A01 T03280137  RH  032%=      5-min Rain = 0
KBO1 111539Z 22014KT 33/14 A3018 RMK A01 T03280140  RH  032%=      5-min Rain = 0
KBO1 111540Z 22010KT 33/14 A3018 RMK A01 T03280139  RH  032%=      5-min Rain = 0
KBO1 111541Z 23012KT 33/14 A3018 RMK A01 T03280140  RH  032%=      5-min Rain = 0
KBO1 111542Z 24010KT 33/15 A3018 RMK A01 T03320146  RH  032%=      5-min Rain = 0
KBO1 111543Z 24012KT 34/14 A3018 RMK A01 T03360143  RH  031%=      5-min Rain = 0
KBO1 111544Z 22014KT 33/14 A3018 RMK A01 T03340140  RH  031%=      5-min Rain = 0
KBO1 111545Z 22015G20KT 33/14 A3018 RMK A01 T03310139  RH  031%=      5-min Rain = 0
KBO1 111546Z 22013KT 33/14 A3018 RMK A01 T03340139  RH  031%=      5-min Rain = 0
KBO1 111547Z 21013KT 34/14 A3018 RMK A01 T03350137  RH  030%=      5-min Rain = 0
KBO1 111548Z 22013KT 34/14 A3018 RMK A01 T03360135  RH  030%=      5-min Rain = 0
KBO1 111549Z 23015KT 34/13 A3018 RMK A01 T03360134  RH  030%=      5-min Rain = 0
KBO1 111550Z 23014KT 34/13 A3018 RMK A01 T03360132  RH  029%=      5-min Rain = 0
KBO1 111551Z 23012KT 34/13 A3018 RMK A01 T03370131  RH  029%=      5-min Rain = 0
KBO1 111552Z 24012KT 34/13 A3018 RMK A01 T03360127  RH  028%=      5-min Rain = 0
KBO1 111553Z 24011KT 34/12 A3018 RMK A01 T03350124  RH  028%=      5-min Rain = 0
KBO1 111554Z 23009KT 33/13 A3018 RMK A01 T03340126  RH  028%=      5-min Rain = 0
KBO1 111555Z 22010KT 33/13 A3018 RMK A01 T03340130  RH  029%=      5-min Rain = 0
KBO1 111556Z 24012KT 34/13 A3018 RMK A01 T03370133  RH  029%=      5-min Rain = 0
KBO1 111557Z 23012KT 34/13 A3018 RMK A01 T03390131  RH  029%=      5-min Rain = 0
KBO1 111558Z 23013KT 34/13 A3018 RMK A01 T03380132  RH  029%=      5-min Rain = 0
KBO1 111559Z 23013KT 34/13 A3018 RMK A01 T03370129  RH  028%=      5-min Rain = 0
KBO1 111600Z 23014KT 34/13 A3018 RMK A01 T03360134  RH  029%=      5-min Rain = 0
KBO1 111601Z 24012KT 34/13 A3018 RMK A01 T03370131  RH  029%=      5-min Rain = 0
KBO1 111602Z 25012KT 34/13 A3018 RMK A01 T03350129  RH  029%=      5-min Rain = 0
KBO1 111603Z 25011KT 33/13 A3018 RMK A01 T03340130  RH  029%=      5-min Rain = 0
KBO1 111604Z 23013KT 34/13 A3018 RMK A01 T03350130  RH  029%=      5-min Rain = 0
KBO1 111605Z 23010KT 34/13 A3018 RMK A01 T03360129  RH  029%=      5-min Rain = 0
KBO1 111606Z 25013KT 34/13 A3018 RMK A01 T03350131  RH  029%=      5-min Rain = 0
KBO1 111607Z 25015KT 34/13 A3018 RMK A01 T03360129  RH  029%=      5-min Rain = 0
KBO1 111608Z 25014KT 34/13 A3018 RMK A01 T03360127  RH  028%=      5-min Rain = 0
KBO1 111609Z 25013KT 34/13 A3019 RMK A01 T03350131  RH  029%=      5-min Rain = 0
KBO1 111610Z 24012KT 34/13 A3018 RMK A01 T03380131  RH  029%=      5-min Rain = 0
KBO1 111611Z 25011KT 34/13 A3019 RMK A01 T03390131  RH  028%=      5-min Rain = 0
KBO1 111612Z 23012KT 34/13 A3019 RMK A01 T03390128  RH  028%=      5-min Rain = 0
KBO1 111613Z 25011KT 34/13 A3019 RMK A01 T03370128  RH  028%=      5-min Rain = 0
KBO1 111614Z 25011KT 34/13 A3019 RMK A01 T03370126  RH  028%=      5-min Rain = 0
KBO1 111615Z 25009KT 34/13 A3019 RMK A01 T03370126  RH  028%=      5-min Rain = 0
KBO1 111616Z 25011KT 34/13 A3019 RMK A01 T03370128  RH  028%=      5-min Rain = 0
KBO1 111617Z 25011KT 34/13 A3019 RMK A01 T03370126  RH  028%=      5-min Rain = 0
KBO1 111618Z 26006KT 34/13 A3019 RMK A01 T03370126  RH  028%=      5-min Rain = 0
KBO1 111619Z 26007G14KT 34/13 A3019 RMK A01 T03380126  RH  028%=      5-min Rain = 0
KBO1 111620Z 25008KT 34/12 A3019 RMK A01 T03380122  RH  027%=      5-min Rain = 0
KBO1 111621Z 24009KT 34/12 A3019 RMK A01 T03380124  RH  027%=      5-min Rain = 0
KBO1 111622Z 24011KT 34/12 A3019 RMK A01 T03400120  RH  026%=      5-min Rain = 0
KBO1 111623Z 22009KT 34/12 A3019 RMK A01 T03390117  RH  026%=      5-min Rain = 0
KBO1 111624Z 20006KT 34/12 A3019 RMK A01 T03350116  RH  026%=      5-min Rain = 0
KBO1 111625Z 21005KT 33/12 A3019 RMK A01 T03340120  RH  027%=      5-min Rain = 0
KBO1 111626Z 25007KT 34/12 A3019 RMK A01 T03370122  RH  027%=      5-min Rain = 0
KBO1 111627Z 27008KT 34/13 A3019 RMK A01 T03390128  RH  028%=      5-min Rain = 0
KBO1 111628Z 27007KT 34/13 A3019 RMK A01 T03410129  RH  028%=      5-min Rain = 0
KBO1 111629Z 27008KT 34/13 A3019 RMK A01 T03420130  RH  028%=      5-min Rain = 0
KBO1 111630Z 26011KT 34/12 A3019 RMK A01 T03420122  RH  026%=      5-min Rain = 0
KBO1 111631Z 27011KT 34/12 A3019 RMK A01 T03390121  RH  027%=      5-min Rain = 0
KBO1 111632Z 26010KT 34/12 A3019 RMK A01 T03380120  RH  027%=      5-min Rain = 0
KBO1 111633Z 26009KT 34/12 A3019 RMK A01 T03380120  RH  027%=      5-min Rain = 0
KBO1 111634Z 26010KT 34/12 A3019 RMK A01 T03380120  RH  027%=      5-min Rain = 0
KBO1 111635Z 25009KT 34/12 A3019 RMK A01 T03380117  RH  026%=      5-min Rain = 0
KBO1 111636Z 27007KT 34/12 A3019 RMK A01 T03380117  RH  026%=      5-min Rain = 0
KBO1 111637Z 27007KT 34/12 A3019 RMK A01 T03390121  RH  027%=      5-min Rain = 0
KBO1 111638Z 28007KT 34/12 A3019 RMK A01 T03400118  RH  026%=      5-min Rain = 0
KBO1 111639Z 26006KT 34/12 A3019 RMK A01 T03400119  RH  026%=      5-min Rain = 0
KBO1 111640Z 23006KT 34/12 A3019 RMK A01 T03400121  RH  026%=      5-min Rain = 0
KBO1 111641Z 25004KT 34/12 A3019 RMK A01 T03390124  RH  027%=      5-min Rain = 0
KBO1 111642Z 29002KT 34/12 A3019 RMK A01 T03400121  RH  027%=      5-min Rain = 0
KBO1 111643Z 26005KT 34/12 A3019 RMK A01 T03400123  RH  027%=      5-min Rain = 0
KBO1 111644Z 25005KT 34/12 A3019 RMK A01 T03420123  RH  027%=      5-min Rain = 0
KBO1 111645Z 26004KT 34/12 A3019 RMK A01 T03440124  RH  026%=      5-min Rain = 0
KBO1 111646Z 29007KT 35/13 A3019 RMK A01 T03460126  RH  027%=      5-min Rain = 0
KBO1 111647Z 29007KT 35/13 A3019 RMK A01 T03450127  RH  027%=      5-min Rain = 0
KBO1 111648Z 27008KT 34/13 A3019 RMK A01 T03420127  RH  027%=      5-min Rain = 0
KBO1 111649Z 26009KT 34/13 A3019 RMK A01 T03430128  RH  027%=      5-min Rain = 0
KBO1 111650Z 27007G12KT 34/12 A3019 RMK A01 T03440124  RH  027%=      5-min Rain = 0
KBO1 111651Z 28006KT 34/12 A3018 RMK A01 T03430124  RH  027%=      5-min Rain = 0
KBO1 111652Z 26008KT 34/13 A3018 RMK A01 T03420126  RH  027%=      5-min Rain = 0
KBO1 111653Z 24012KT 34/12 A3018 RMK A01 T03430123  RH  026%=      5-min Rain = 0
KBO1 111654Z 25012KT 35/12 A3018 RMK A01 T03460120  RH  026%=      5-min Rain = 0
KBO1 111655Z 24009KT 35/12 A3019 RMK A01 T03460121  RH  026%=      5-min Rain = 0
KBO1 111656Z 22006KT 35/12 A3019 RMK A01 T03450120  RH  026%=      5-min Rain = 0
KBO1 111657Z 22008KT 35/12 A3019 RMK A01 T03460122  RH  026%=      5-min Rain = 0
KBO1 111658Z 23007KT 35/12 A3019 RMK A01 T03490119  RH  025%=      5-min Rain = 0
KBO1 111659Z 22006KT 35/12 A3018 RMK A01 T03490119  RH  025%=      5-min Rain = 0
KBO1 111700Z 22005KT 35/12 A3018 RMK A01 T03480120  RH  025%=      5-min Rain = 0
KBO1 111701Z 25010G15KT 35/13 A3018 RMK A01 T03500126  RH  026%=      5-min Rain = 0
KBO1 111702Z 23010KT 36/12 A3019 RMK A01 T03560120  RH  024%=      5-min Rain = 0
KBO1 111703Z 25008KT 36/12 A3019 RMK A01 T03580121  RH  024%=      5-min Rain = 0
KBO1 111704Z 28007KT 36/12 A3019 RMK A01 T03560124  RH  025%=      5-min Rain = 0
KBO1 111705Z 28007KT 35/13 A3019 RMK A01 T03530125  RH  025%=      5-min Rain = 0
KBO1 111706Z 25010KT 35/12 A3018 RMK A01 T03530121  RH  025%=      5-min Rain = 0
KBO1 111707Z 26009KT 35/12 A3019 RMK A01 T03540115  RH  024%=      5-min Rain = 0
KBO1 111708Z 25005KT 35/11 A3019 RMK A01 T03520112  RH  023%=      5-min Rain = 0
KBO1 111709Z 25007KT 35/12 A3019 RMK A01 T03500116  RH  024%=      5-min Rain = 0
KBO1 111710Z 27006KT 35/12 A3019 RMK A01 T03510118  RH  024%=      5-min Rain = 0
KBO1 111711Z 23005KT 35/12 A3019 RMK A01 T03510118  RH  024%=      5-min Rain = 0
KBO1 111712Z 28007KT 35/13 A3018 RMK A01 T03510128  RH  026%=      5-min Rain = 0
KBO1 111713Z 28011KT 36/13 A3018 RMK A01 T03560131  RH  026%=      5-min Rain = 0
KBO1 111714Z 27010KT 36/13 A3019 RMK A01 T03560133  RH  026%=      5-min Rain = 0
KBO1 111715Z 28010KT 35/13 A3019 RMK A01 T03540131  RH  026%=      5-min Rain = 0
KBO1 111716Z 29009KT 35/13 A3018 RMK A01 T03530133  RH  027%=      5-min Rain = 0
KBO1 111717Z 29006KT 36/13 A3018 RMK A01 T03550129  RH  026%=      5-min Rain = 0
KBO1 111718Z 31007KT 36/14 A3018 RMK A01 T03550135  RH  027%=      5-min Rain = 0
KBO1 111719Z 31008KT 36/13 A3018 RMK A01 T03570131  RH  026%=      5-min Rain = 0
KBO1 111720Z 31007KT 36/13 A3018 RMK A01 T03570126  RH  025%=      5-min Rain = 0
KBO1 111721Z 31005KT 35/12 A3018 RMK A01 T03540124  RH  025%=      5-min Rain = 0
KBO1 111722Z 30008KT 35/13 A3018 RMK A01 T03530128  RH  026%=      5-min Rain = 0
KBO1 111723Z 29009KT 35/13 A3018 RMK A01 T03520132  RH  027%=      5-min Rain = 0
KBO1 111724Z 30009KT 35/13 A3018 RMK A01 T03540130  RH  026%=      5-min Rain = 0
KBO1 111725Z 29006G11KT 35/13 A3018 RMK A01 T03540128  RH  026%=      5-min Rain = 0
KBO1 111726Z 30009KT 35/13 A3018 RMK A01 T03530132  RH  026%=      5-min Rain = 0
KBO1 111727Z 28007KT 35/13 A3018 RMK A01 T03520130  RH  026%=      5-min Rain = 0
KBO1 111728Z 27003KT 35/13 A3018 RMK A01 T03510128  RH  026%=      5-min Rain = 0
KBO1 111729Z 23001KT 35/13 A3018 RMK A01 T03490128  RH  026%=      5-min Rain = 0
KBO1 111730Z 23003G9KT 35/13 A3018 RMK A01 T03490129  RH  027%=      5-min Rain = 0
KBO1 111731Z 26006KT 35/13 A3018 RMK A01 T03520130  RH  026%=      5-min Rain = 0
KBO1 111732Z 27005KT 35/13 A3018 RMK A01 T03540127  RH  025%=      5-min Rain = 0
KBO1 111733Z 26007KT 36/13 A3018 RMK A01 T03560126  RH  025%=      5-min Rain = 0
KBO1 111734Z 27009KT 36/13 A3018 RMK A01 T03570126  RH  025%=      5-min Rain = 0
KBO1 111735Z 28007KT 36/13 A3018 RMK A01 T03580127  RH  025%=      5-min Rain = 0
KBO1 111736Z 28009KT 36/13 A3018 RMK A01 T03570129  RH  025%=      5-min Rain = 0
KBO1 111737Z 29009KT 36/13 A3018 RMK A01 T03560131  RH  026%=      5-min Rain = 0
KBO1 111738Z 28007KT 36/13 A3018 RMK A01 T03570132  RH  026%=      5-min Rain = 0
KBO1 111739Z 29010KT 36/13 A3018 RMK A01 T03570132  RH  026%=      5-min Rain = 0
KBO1 111740Z 29009KT 36/13 A3018 RMK A01 T03580132  RH  026%=      5-min Rain = 0
KBO1 111741Z 31007KT 36/13 A3018 RMK A01 T03570134  RH  026%=      5-min Rain = 0
KBO1 111742Z 29009KT 36/13 A3018 RMK A01 T03560134  RH  026%=      5-min Rain = 0
KBO1 111743Z 29009KT 36/13 A3018 RMK A01 T03570131  RH  026%=      5-min Rain = 0
KBO1 111744Z 27010KT 36/13 A3018 RMK A01 T03590129  RH  025%=      5-min Rain = 0
KBO1 111745Z 26009KT 36/12 A3018 RMK A01 T03590123  RH  024%=      5-min Rain = 0
KBO1 111746Z 28010KT 36/13 A3018 RMK A01 T03580131  RH  026%=      5-min Rain = 0
KBO1 111747Z 30009KT 36/13 A3018 RMK A01 T03600131  RH  025%=      5-min Rain = 0
KBO1 111748Z 28008KT 36/13 A3018 RMK A01 T03600130  RH  025%=      5-min Rain = 0
KBO1 111749Z 29010KT 36/13 A3018 RMK A01 T03590132  RH  026%=      5-min Rain = 0
KBO1 111750Z 29009KT 36/13 A3018 RMK A01 T03600128  RH  025%=      5-min Rain = 0
KBO1 111751Z 27009KT 36/13 A3018 RMK A01 T03590130  RH  025%=      5-min Rain = 0
KBO1 111752Z 25010KT 36/12 A3018 RMK A01 T03610116  RH  023%=      5-min Rain = 0
KBO1 111753Z 24007KT 36/12 A3018 RMK A01 T03610116  RH  023%=      5-min Rain = 0
KBO1 111754Z 25007KT 36/12 A3018 RMK A01 T03600120  RH  024%=      5-min Rain = 0
KBO1 111755Z 25008KT 36/12 A3018 RMK A01 T03620121  RH  023%=      5-min Rain = 0
KBO1 111756Z 23012KT 36/12 A3018 RMK A01 T03630119  RH  023%=      5-min Rain = 0
KBO1 111757Z 23010KT 36/12 A3018 RMK A01 T03640115  RH  022%=      5-min Rain = 0
KBO1 111758Z 25009G14KT 36/11 A3018 RMK A01 T03630114  RH  022%=      5-min Rain = 0
KBO1 111759Z 26008KT 36/11 A3018 RMK A01 T03640112  RH  022%=      5-min Rain = 0
KBO1 111800Z 27005KT 36/11 A3018 RMK A01 T03620108  RH  022%=      5-min Rain = 0
KBO1 111801Z 27007KT 36/11 A3018 RMK A01 T03600112  RH  022%=      5-min Rain = 0
KBO1 111802Z 29007KT 36/11 A3018 RMK A01 T03610109  RH  022%=      5-min Rain = 0
KBO1 111803Z 30005KT 36/11 A3018 RMK A01 T03610108  RH  022%=      5-min Rain = 0
KBO1 111804Z 35002KT 36/11 A3018 RMK A01 T03600108  RH  022%=      5-min Rain = 0
KBO1 111805Z 31004KT 36/11 A3018 RMK A01 T03580110  RH  022%=      5-min Rain = 0
KBO1 111806Z 28008KT 36/11 A3018 RMK A01 T03590113  RH  023%=      5-min Rain = 0
KBO1 111807Z 29006KT 36/11 A3018 RMK A01 T03600108  RH  022%=      5-min Rain = 0
KBO1 111808Z 27005KT 36/11 A3018 RMK A01 T03600109  RH  022%=      5-min Rain = 0
KBO1 111809Z 27006KT 36/11 A3018 RMK A01 T03600110  RH  022%=      5-min Rain = 0
KBO1 111810Z 26006KT 36/11 A3018 RMK A01 T03610113  RH  022%=      5-min Rain = 0
KBO1 111811Z 28006KT 37/11 A3018 RMK A01 T03660107  RH  021%=      5-min Rain = 0
KBO1 111812Z 30003KT 37/11 A3018 RMK A01 T03670112  RH  022%=      5-min Rain = 0
KBO1 111813Z 23005KT 37/11 A3018 RMK A01 T03690112  RH  021%=      5-min Rain = 0
KBO1 111814Z 20004KT 37/10 A3018 RMK A01 T03700103  RH  020%=      5-min Rain = 0
KBO1 111815Z 18005KT 37/10 A3018 RMK A01 T03680103  RH  020%=      5-min Rain = 0
KBO1 111816Z 18005KT 37/10 A3018 RMK A01 T03680103  RH  020%=      5-min Rain = 0
KBO1 111817Z 18005KT 37/10 A3018 RMK A01 T03690102  RH  020%=      5-min Rain = 0
KBO1 111818Z 20003KT 37/11 A3018 RMK A01 T03690108  RH  021%=      5-min Rain = 0
KBO1 111819Z 20003KT 37/11 A3018 RMK A01 T03700107  RH  020%=      5-min Rain = 0
KBO1 111820Z 24008KT 37/11 A3018 RMK A01 T03710109  RH  021%=      5-min Rain = 0
KBO1 111821Z 24010KT 37/11 A3018 RMK A01 T03710108  RH  020%=      5-min Rain = 0
KBO1 111822Z 25011KT 37/11 A3018 RMK A01 T03700109  RH  021%=      5-min Rain = 0
KBO1 111823Z 26008KT 37/11 A3018 RMK A01 T03700108  RH  021%=      5-min Rain = 0
KBO1 111824Z 26006KT 37/11 A3018 RMK A01 T03680107  RH  021%=      5-min Rain = 0
KBO1 111825Z 24010G16KT 37/11 A3018 RMK A01 T03680111  RH  021%=      5-min Rain = 0
KBO1 111826Z 25005KT 37/10 A3018 RMK A01 T03690102  RH  020%=      5-min Rain = 0
KBO1 111827Z 27004KT 37/10 A3018 RMK A01 T03660104  RH  020%=      5-min Rain = 0
KBO1 111828Z 21002KT 37/11 A3018 RMK A01 T03650106  RH  021%=      5-min Rain = 0
KBO1 111829Z 22005KT 37/11 A3018 RMK A01 T03660105  RH  021%=      5-min Rain = 0
KBO1 111830Z 24006KT 37/10 A3018 RMK A01 T03680103  RH  020%=      5-min Rain = 0
KBO1 111831Z 27008KT 37/11 A3018 RMK A01 T03710106  RH  020%=      5-min Rain = 0
KBO1 111832Z 26008KT 37/11 A3018 RMK A01 T03710107  RH  020%=      5-min Rain = 0
KBO1 111833Z 25006KT 37/10 A3018 RMK A01 T03720103  RH  020%=      5-min Rain = 0
KBO1 111834Z 27007KT 37/11 A3017 RMK A01 T03690106  RH  020%=      5-min Rain = 0
KBO1 111835Z 24005KT 37/10 A3017 RMK A01 T03680104  RH  020%=      5-min Rain = 0
KBO1 111836Z 27002KT 37/11 A3017 RMK A01 T03670110  RH  021%=      5-min Rain = 0
KBO1 111837Z 30007KT 37/11 A3017 RMK A01 T03680113  RH  022%=      5-min Rain = 0
KBO1 111838Z 30006KT 37/11 A3017 RMK A01 T03700109  RH  021%=      5-min Rain = 0
KBO1 111839Z 32005KT 37/11 A3017 RMK A01 T03680111  RH  021%=      5-min Rain = 0
KBO1 111840Z 29006KT 37/11 A3017 RMK A01 T03680112  RH  021%=      5-min Rain = 0
KBO1 111841Z 28007KT 37/11 A3017 RMK A01 T03690114  RH  022%=      5-min Rain = 0
KBO1 111842Z 28009KT 38/11 A3017 RMK A01 T03750114  RH  021%=      5-min Rain = 0
KBO1 111843Z 27006KT 38/11 A3017 RMK A01 T03770110  RH  020%=      5-min Rain = 0
KBO1 111844Z 26004KT 38/11 A3017 RMK A01 T03760109  RH  020%=      5-min Rain = 0
KBO1 111845Z 27005KT 38/11 A3017 RMK A01 T03760110  RH  020%=      5-min Rain = 0
KBO1 111846Z 28006KT 38/10 A3017 RMK A01 T03750104  RH  019%=      5-min Rain = 0
KBO1 111847Z 27002KT 37/10 A3017 RMK A01 T03720104  RH  020%=      5-min Rain = 0
KBO1 111848Z 27004KT 37/11 A3017 RMK A01 T03720106  RH  020%=      5-min Rain = 0
KBO1 111849Z 26005KT 37/10 A3017 RMK A01 T03740104  RH  020%=      5-min Rain = 0
KBO1 111850Z 24007KT 38/11 A3017 RMK A01 T03780105  RH  019%=      5-min Rain = 0
KBO1 111851Z 24008KT 38/10 A3017 RMK A01 T03810102  RH  019%=      5-min Rain = 0
KBO1 111852Z 25008KT 38/11 A3017 RMK A01 T03810105  RH  019%=      5-min Rain = 0
KBO1 111853Z 24004KT 38/11 A3017 RMK A01 T03800109  RH  020%=      5-min Rain = 0
KBO1 111854Z 24006KT 38/11 A3017 RMK A01 T03800107  RH  019%=      5-min Rain = 0
KBO1 111855Z 23008KT 38/10 A3017 RMK A01 T03810104  RH  019%=      5-min Rain = 0
KBO1 111856Z 27008KT 38/11 A3017 RMK A01 T03780106  RH  019%=      5-min Rain = 0
KBO1 111857Z 27003KT 38/10 A3017 RMK A01 T03760103  RH  019%=      5-min Rain = 0
KBO1 111858Z 30001KT 37/10 A3017 RMK A01 T03740096  RH  019%=      5-min Rain = 0
KBO1 111859Z 32001KT 37/10 A3016 RMK A01 T03730098  RH  019%=      5-min Rain = 0
KBO1 111900Z 19001KT 37/10 A3016 RMK A01 T03740102  RH  019%=      5-min Rain = 0
KBO1 111901Z 28004KT 38/10 A3016 RMK A01 T03750104  RH  019%=      5-min Rain = 0
KBO1 111902Z 31002KT 38/10 A3016 RMK A01 T03750102  RH  019%=      5-min Rain = 0
KBO1 111903Z 27005KT 38/10 A3016 RMK A01 T03750102  RH  019%=      5-min Rain = 0
KBO1 111904Z 24002KT 37/10 A3016 RMK A01 T03740102  RH  019%=      5-min Rain = 0
KBO1 111905Z 21001KT 37/10 A3016 RMK A01 T03740103  RH  020%=      5-min Rain = 0
KBO1 111906Z 23004KT 37/11 A3016 RMK A01 T03740107  RH  020%=      5-min Rain = 0
KBO1 111907Z 22002KT 38/10 A3016 RMK A01 T03750101  RH  019%=      5-min Rain = 0
KBO1 111908Z 23004KT 38/10 A3016 RMK A01 T03750101  RH  019%=      5-min Rain = 0
KBO1 111909Z 23002KT 37/10 A3016 RMK A01 T03730101  RH  019%=      5-min Rain = 0
KBO1 111910Z 25005KT 37/10 A3016 RMK A01 T03720103  RH  020%=      5-min Rain = 0
KBO1 111911Z 32008KT 37/11 A3016 RMK A01 T03730110  RH  021%=      5-min Rain = 0
KBO1 111912Z 30008KT 37/11 A3016 RMK A01 T03740110  RH  020%=      5-min Rain = 0
KBO1 111913Z 30008KT 37/11 A3016 RMK A01 T03740110  RH  020%=      5-min Rain = 0
KBO1 111914Z 30008KT 37/11 A3016 RMK A01 T03740111  RH  021%=      5-min Rain = 0
KBO1 111915Z 29011KT 38/12 A3016 RMK A01 T03770116  RH  021%=      5-min Rain = 0
KBO1 111916Z 30010KT 38/11 A3016 RMK A01 T03780111  RH  020%=      5-min Rain = 0
KBO1 111917Z 30009KT 38/11 A3016 RMK A01 T03770114  RH  021%=      5-min Rain = 0
KBO1 111918Z 28006KT 38/11 A3016 RMK A01 T03770112  RH  020%=      5-min Rain = 0
KBO1 111919Z 27008KT 38/12 A3016 RMK A01 T03780115  RH  021%=      5-min Rain = 0
KBO1 111920Z 26007KT 38/11 A3016 RMK A01 T03800108  RH  020%=      5-min Rain = 0
KBO1 111921Z 27002KT 38/11 A3016 RMK A01 T03770105  RH  019%=      5-min Rain = 0
KBO1 111922Z 30002KT 38/11 A3016 RMK A01 T03750111  RH  020%=      5-min Rain = 0
KBO1 111923Z 02005KT 37/11 A3016 RMK A01 T03740108  RH  020%=      5-min Rain = 0
KBO1 111924Z 00002KT 37/11 A3016 RMK A01 T03730109  RH  020%=      5-min Rain = 0
KBO1 111925Z 35001KT 37/11 A3015 RMK A01 T03720109  RH  020%=      5-min Rain = 0
KBO1 111926Z 35006KT 37/11 A3015 RMK A01 T03740113  RH  021%=      5-min Rain = 0
KBO1 111927Z 33009KT 38/12 A3015 RMK A01 T03770116  RH  021%=      5-min Rain = 0
KBO1 111928Z 34007KT 38/11 A3015 RMK A01 T03780111  RH  020%=      5-min Rain = 0
KBO1 111929Z 34006KT 38/11 A3015 RMK A01 T03760113  RH  021%=      5-min Rain = 0
KBO1 111930Z 34004KT 38/11 A3015 RMK A01 T03770111  RH  020%=      5-min Rain = 0
KBO1 111931Z 29005KT 38/11 A3015 RMK A01 T03760111  RH  020%=      5-min Rain = 0
KBO1 111932Z 30004KT 38/11 A3015 RMK A01 T03780113  RH  020%=      5-min Rain = 0
KBO1 111933Z 27003KT 38/10 A3015 RMK A01 T03810103  RH  019%=      5-min Rain = 0
KBO1 111934Z 34004KT 38/11 A3015 RMK A01 T03830108  RH  019%=      5-min Rain = 0
KBO1 111935Z 36006KT 39/12 A3015 RMK A01 T03850116  RH  020%=      5-min Rain = 0
KBO1 111936Z 35006KT 39/11 A3015 RMK A01 T03850113  RH  020%=      5-min Rain = 0
KBO1 111937Z 30007KT 38/11 A3015 RMK A01 T03820111  RH  020%=      5-min Rain = 0
KBO1 111938Z 29006KT 38/10 A3015 RMK A01 T03830097  RH  018%=      5-min Rain = 0
KBO1 111939Z 26007KT 38/09 A3015 RMK A01 T03830094  RH  017%=      5-min Rain = 0
KBO1 111940Z 24007KT 39/09 A3015 RMK A01 T03860092  RH  017%=      5-min Rain = 0
KBO1 111941Z 24007KT 39/09 A3015 RMK A01 T03880088  RH  016%=      5-min Rain = 0
KBO1 111942Z 24004KT 39/09 A3015 RMK A01 T03850086  RH  016%=      5-min Rain = 0
KBO1 111943Z 28002KT 38/08 A3015 RMK A01 T03810082  RH  016%=      5-min Rain = 0
KBO1 111944Z 31006KT 38/08 A3015 RMK A01 T03810082  RH  016%=      5-min Rain = 0
KBO1 111945Z 32004KT 38/08 A3015 RMK A01 T03790078  RH  016%=      5-min Rain = 0
KBO1 111946Z 33004KT 38/09 A3015 RMK A01 T03780086  RH  017%=      5-min Rain = 0
KBO1 111947Z 28004KT 38/09 A3015 RMK A01 T03800089  RH  017%=      5-min Rain = 0
KBO1 111948Z 24002KT 38/09 A3015 RMK A01 T03840086  RH  016%=      5-min Rain = 0
KBO1 111949Z 23002KT 39/09 A3015 RMK A01 T03860085  RH  016%=      5-min Rain = 0
KBO1 111950Z 34002KT 39/09 A3015 RMK A01 T03870085  RH  016%=      5-min Rain = 0
KBO1 111951Z 03003KT 39/09 A3015 RMK A01 T03870088  RH  016%=      5-min Rain = 0
KBO1 111952Z 06002KT 39/08 A3015 RMK A01 T03870083  RH  016%=      5-min Rain = 0
KBO1 111953Z 03002KT 39/08 A3015 RMK A01 T03860084  RH  016%=      5-min Rain = 0
KBO1 111954Z 33005G10KT 39/09 A3015 RMK A01 T03860094  RH  017%=      5-min Rain = 0
KBO1 111955Z 33008KT 39/11 A3015 RMK A01 T03870111  RH  019%=      5-min Rain = 0
KBO1 111956Z 31005KT 39/11 A3015 RMK A01 T03860106  RH  019%=      5-min Rain = 0
KBO1 111957Z 28008KT 39/11 A3015 RMK A01 T03880108  RH  019%=      5-min Rain = 0
KBO1 111958Z 28009KT 39/10 A3015 RMK A01 T03890099  RH  018%=      5-min Rain = 0
KBO1 111959Z 26011KT 39/10 A3014 RMK A01 T03890104  RH  018%=      5-min Rain = 0
KBO1 112000Z 26008KT 39/10 A3015 RMK A01 T03850099  RH  018%=      5-min Rain = 0
KBO1 112001Z 30008KT 38/10 A3015 RMK A01 T03800101  RH  019%=      5-min Rain = 0
KBO1 112002Z 31006KT 38/11 A3015 RMK A01 T03790105  RH  019%=      5-min Rain = 0
KBO1 112003Z 33005KT 38/11 A3015 RMK A01 T03800107  RH  019%=      5-min Rain = 0
KBO1 112004Z 35007KT 38/11 A3014 RMK A01 T03810108  RH  019%=      5-min Rain = 0
KBO1 112005Z 33006G11KT 38/12 A3014 RMK A01 T03840117  RH  020%=      5-min Rain = 0
KBO1 112006Z 31010KT 39/12 A3014 RMK A01 T03890118  RH  020%=      5-min Rain = 0
KBO1 112007Z 31006KT 39/11 A3014 RMK A01 T03910113  RH  019%=      5-min Rain = 0
KBO1 112008Z 31007KT 39/11 A3014 RMK A01 T03900112  RH  019%=      5-min Rain = 0
KBO1 112009Z 32006KT 39/11 A3014 RMK A01 T03870107  RH  019%=      5-min Rain = 0
KBO1 112010Z 29006KT 39/11 A3014 RMK A01 T03860109  RH  019%=      5-min Rain = 0
KBO1 112011Z 29003KT 39/11 A3014 RMK A01 T03850112  RH  020%=      5-min Rain = 0
KBO1 112012Z 31003KT 39/11 A3014 RMK A01 T03860108  RH  019%=      5-min Rain = 0
KBO1 112013Z 32004KT 39/11 A3014 RMK A01 T03860112  RH  019%=      5-min Rain = 0
KBO1 112014Z 31009KT 39/12 A3014 RMK A01 T03880118  RH  020%=      5-min Rain = 0
KBO1 112015Z 30011KT 39/11 A3014 RMK A01 T03890111  RH  019%=      5-min Rain = 0
KBO1 112016Z 31009KT 39/11 A3014 RMK A01 T03860110  RH  019%=      5-min Rain = 0
KBO1 112017Z 33003KT 38/10 A3014 RMK A01 T03830104  RH  019%=      5-min Rain = 0
KBO1 112018Z 32004KT 38/11 A3014 RMK A01 T03810105  RH  019%=      5-min Rain = 0
KBO1 112019Z 29002KT 38/10 A3014 RMK A01 T03810104  RH  019%=      5-min Rain = 0
KBO1 112020Z 00004KT 38/11 A3014 RMK A01 T03810109  RH  020%=      5-min Rain = 0
KBO1 112021Z 36003KT 38/11 A3014 RMK A01 T03830107  RH  019%=      5-min Rain = 0
KBO1 112022Z 33005KT 39/12 A3014 RMK A01 T03860116  RH  020%=      5-min Rain = 0
KBO1 112023Z 31006KT 39/11 A3014 RMK A01 T03900114  RH  019%=      5-min Rain = 0
KBO1 112024Z 30007KT 39/11 A3014 RMK A01 T03910110  RH  019%=      5-min Rain = 0
KBO1 112025Z 29004KT 39/11 A3014 RMK A01 T03880105  RH  018%=      5-min Rain = 0
KBO1 112026Z 31004KT 39/11 A3014 RMK A01 T03860107  RH  019%=      5-min Rain = 0
KBO1 112027Z 31004KT 39/11 A3014 RMK A01 T03860105  RH  019%=      5-min Rain = 0
KBO1 112028Z 35003KT 39/11 A3014 RMK A01 T03860105  RH  019%=      5-min Rain = 0
KBO1 112029Z 33004KT 39/10 A3014 RMK A01 T03850104  RH  019%=      5-min Rain = 0
KBO1 112030Z 31004KT 39/11 A3014 RMK A01 T03850105  RH  019%=      5-min Rain = 0
KBO1 112031Z 30006G11KT 38/10 A3014 RMK A01 T03840102  RH  018%=      5-min Rain = 0
KBO1 112032Z 32007KT 39/11 A3014 RMK A01 T03860108  RH  019%=      5-min Rain = 0
KBO1 112033Z 00008KT 39/11 A3014 RMK A01 T03910110  RH  019%=      5-min Rain = 0
KBO1 112034Z 36007KT 39/10 A3014 RMK A01 T03920100  RH  017%=      5-min Rain = 0
KBO1 112035Z 34010KT 39/10 A3013 RMK A01 T03890099  RH  018%=      5-min Rain = 0
KBO1 112036Z 33010KT 39/10 A3013 RMK A01 T03890104  RH  018%=      5-min Rain = 0
KBO1 112037Z 33007KT 39/10 A3013 RMK A01 T03920099  RH  017%=      5-min Rain = 0
KBO1 112038Z 32006KT 39/10 A3013 RMK A01 T03910100  RH  018%=      5-min Rain = 0
KBO1 112039Z 34007KT 39/10 A3013 RMK A01 T03910104  RH  018%=      5-min Rain = 0
KBO1 112040Z 35005KT 39/10 A3013 RMK A01 T03940102  RH  017%=      5-min Rain = 0
KBO1 112041Z 01005KT 39/10 A3013 RMK A01 T03940097  RH  017%=      5-min Rain = 0
KBO1 112042Z 33005KT 39/10 A3013 RMK A01 T03910096  RH  017%=      5-min Rain = 0
KBO1 112043Z 33008KT 39/11 A3013 RMK A01 T03900109  RH  019%=      5-min Rain = 0
KBO1 112044Z 33007KT 39/11 A3013 RMK A01 T03910107  RH  018%=      5-min Rain = 0
KBO1 112045Z 33007KT 39/11 A3013 RMK A01 T03900110  RH  019%=      5-min Rain = 0
KBO1 112046Z 33004KT 39/11 A3013 RMK A01 T03900106  RH  018%=      5-min Rain = 0
KBO1 112047Z 33002KT 39/10 A3013 RMK A01 T03900102  RH  018%=      5-min Rain = 0
KBO1 112048Z 35004KT 39/10 A3013 RMK A01 T03900102  RH  018%=      5-min Rain = 0
KBO1 112049Z 33004KT 39/10 A3013 RMK A01 T03880101  RH  018%=      5-min Rain = 0
KBO1 112050Z 34004KT 39/10 A3013 RMK A01 T03870101  RH  018%=      5-min Rain = 0
KBO1 112051Z 35007KT 39/11 A3013 RMK A01 T03880108  RH  019%=      5-min Rain = 0
KBO1 112052Z 33007KT 39/11 A3013 RMK A01 T03910107  RH  018%=      5-min Rain = 0
KBO1 112053Z 32011KT 39/11 A3012 RMK A01 T03940107  RH  018%=      5-min Rain = 0
KBO1 112054Z 31008KT 39/10 A3013 RMK A01 T03930101  RH  017%=      5-min Rain = 0
KBO1 112055Z 31007KT 39/10 A3012 RMK A01 T03910100  RH  017%=      5-min Rain = 0
KBO1 112056Z 32004KT 39/10 A3012 RMK A01 T03880102  RH  018%=      5-min Rain = 0
KBO1 112057Z 01005KT 39/10 A3012 RMK A01 T03890102  RH  018%=      5-min Rain = 0
KBO1 112058Z 34007KT 39/10 A3012 RMK A01 T03900098  RH  017%=      5-min Rain = 0
KBO1 112059Z 34008KT 39/09 A3012 RMK A01 T03880093  RH  017%=      5-min Rain = 0
KBO1 112100Z 34006KT 39/10 A3012 RMK A01 T03880096  RH  017%=      5-min Rain = 0
KBO1 112101Z 34007KT 39/09 A3012 RMK A01 T03890092  RH  017%=      5-min Rain = 0
KBO1 112102Z 35005KT 39/10 A3012 RMK A01 T03890095  RH  017%=      5-min Rain = 0
KBO1 112103Z 32009G15KT 39/10 A3012 RMK A01 T03900096  RH  017%=      5-min Rain = 0
KBO1 112104Z 29013KT 39/10 A3012 RMK A01 T03900099  RH  017%=      5-min Rain = 0
KBO1 112105Z 29012KT 39/10 A3012 RMK A01 T03900101  RH  018%=      5-min Rain = 0
KBO1 112106Z 29009KT 39/10 A3012 RMK A01 T03900098  RH  017%=      5-min Rain = 0
KBO1 112107Z 29005KT 39/09 A3012 RMK A01 T03890092  RH  017%=      5-min Rain = 0
KBO1 112108Z 29003KT 39/10 A3012 RMK A01 T03880095  RH  017%=      5-min Rain = 0
KBO1 112109Z 29003KT 39/09 A3012 RMK A01 T03880094  RH  017%=      5-min Rain = 0
KBO1 112110Z 33007KT 39/10 A3012 RMK A01 T03900100  RH  018%=      5-min Rain = 0
KBO1 112111Z 32009KT 39/10 A3012 RMK A01 T03910099  RH  017%=      5-min Rain = 0
KBO1 112112Z 32009KT 39/10 A3012 RMK A01 T03910099  RH  017%=      5-min Rain = 0
KBO1 112113Z 33007KT 39/10 A3012 RMK A01 T03920099  RH  017%=      5-min Rain = 0
KBO1 112114Z 31006KT 39/10 A3012 RMK A01 T03940104  RH  018%=      5-min Rain = 0
KBO1 112115Z 29006KT 40/10 A3012 RMK A01 T03960100  RH  017%=      5-min Rain = 0
KBO1 112116Z 30009KT 40/10 A3012 RMK A01 T03950101  RH  017%=      5-min Rain = 0
KBO1 112117Z 29010KT 39/10 A3012 RMK A01 T03940098  RH  017%=      5-min Rain = 0
KBO1 112118Z 29009KT 39/10 A3012 RMK A01 T03920096  RH  017%=      5-min Rain = 0
KBO1 112119Z 28007KT 39/10 A3012 RMK A01 T03910095  RH  017%=      5-min Rain = 0
KBO1 112120Z 28007KT 39/10 A3012 RMK A01 T03910095  RH  017%=      5-min Rain = 0
KBO1 112121Z 28007KT 39/10 A3012 RMK A01 T03910095  RH  017%=      5-min Rain = 0
KBO1 112122Z 26007KT 39/10 A3012 RMK A01 T03910095  RH  017%=      5-min Rain = 0
KBO1 112123Z 26008KT 39/10 A3012 RMK A01 T03910095  RH  017%=      5-min Rain = 0
KBO1 112124Z 27005KT 39/09 A3012 RMK A01 T03920092  RH  016%=      5-min Rain = 0
KBO1 112125Z 27004KT 39/09 A3012 RMK A01 T03900092  RH  017%=      5-min Rain = 0
KBO1 112126Z 25003KT 39/09 A3011 RMK A01 T03900090  RH  016%=      5-min Rain = 0
KBO1 112127Z 33005KT 39/09 A3012 RMK A01 T03900092  RH  017%=      5-min Rain = 0
KBO1 112128Z 35008KT 39/09 A3011 RMK A01 T03910093  RH  017%=      5-min Rain = 0
KBO1 112129Z 36010KT 39/09 A3011 RMK A01 T03910089  RH  016%=      5-min Rain = 0
KBO1 112130Z 02008KT 39/09 A3011 RMK A01 T03910091  RH  016%=      5-min Rain = 0
KBO1 112131Z 01006KT 39/09 A3011 RMK A01 T03920089  RH  016%=      5-min Rain = 0
KBO1 112132Z 36005KT 39/09 A3011 RMK A01 T03910089  RH  016%=      5-min Rain = 0
KBO1 112133Z 35006KT 39/08 A3011 RMK A01 T03890083  RH  016%=      5-min Rain = 0
KBO1 112134Z 35003KT 39/08 A3011 RMK A01 T03870082  RH  016%=      5-min Rain = 0
KBO1 112135Z 36002KT 39/08 A3011 RMK A01 T03860081  RH  016%=      5-min Rain = 0
KBO1 112136Z 33000KT 39/08 A3011 RMK A01 T03850081  RH  016%=      5-min Rain = 0
KBO1 112137Z 03000KT 39/08 A3011 RMK A01 T03850080  RH  016%=      5-min Rain = 0
KBO1 112138Z 00001KT 39/08 A3011 RMK A01 T03860083  RH  016%=      5-min Rain = 0
KBO1 112139Z 33001KT 39/08 A3011 RMK A01 T03880082  RH  016%=      5-min Rain = 0
KBO1 112140Z 29001KT 39/08 A3011 RMK A01 T03880083  RH  016%=      5-min Rain = 0
KBO1 112141Z 22001KT 39/08 A3011 RMK A01 T03890081  RH  016%=      5-min Rain = 0
KBO1 112142Z 21002KT 39/09 A3011 RMK A01 T03900085  RH  016%=      5-min Rain = 0
KBO1 112143Z 24003KT 39/09 A3011 RMK A01 T03930088  RH  016%=      5-min Rain = 0
KBO1 112144Z 26001KT 40/09 A3011 RMK A01 T03950089  RH  016%=      5-min Rain = 0
KBO1 112145Z 32010KT 40/09 A301 RMK A01 T03970091  RH  016%=      5-min Rain = 0
KBO1 112146Z 35006KT 40/09 A3011 RMK A01 T03980089  RH  016%=      5-min Rain = 0
KBO1 112147Z 34004KT 40/09 A3011 RMK A01 T03980089  RH  016%=      5-min Rain = 0
KBO1 112148Z 30005KT 40/09 A3011 RMK A01 T03990089  RH  016%=      5-min Rain = 0
KBO1 112149Z 32006KT 40/09 A301 RMK A01 T04010093  RH  016%=      5-min Rain = 0
KBO1 112150Z 33008KT 40/09 A301 RMK A01 T04010090  RH  015%=      5-min Rain = 0
KBO1 112151Z 33005KT 40/08 A301 RMK A01 T03990084  RH  015%=      5-min Rain = 0
KBO1 112152Z 33004KT 40/09 A301 RMK A01 T03960090  RH  016%=      5-min Rain = 0
KBO1 112153Z 30007KT 40/09 A301 RMK A01 T03980085  RH  015%=      5-min Rain = 0
KBO1 112154Z 27005KT 40/07 A301 RMK A01 T03980070  RH  014%=      5-min Rain = 0
KBO1 112155Z 29005KT 40/07 A301 RMK A01 T03960071  RH  014%=      5-min Rain = 0
KBO1 112156Z 31005KT 39/07 A301 RMK A01 T03940069  RH  014%=      5-min Rain = 0
KBO1 112157Z 29005KT 40/07 A301 RMK A01 T03950070  RH  014%=      5-min Rain = 0
KBO1 112158Z 29005KT 40/06 A301 RMK A01 T03950064  RH  013%=      5-min Rain = 0
KBO1 112159Z 33001KT 40/07 A301 RMK A01 T03950065  RH  013%=      5-min Rain = 0
KBO1 112200Z 36003KT 40/07 A301 RMK A01 T03960069  RH  014%=      5-min Rain = 0
KBO1 112201Z 32004KT 40/07 A301 RMK A01 T03970070  RH  014%=      5-min Rain = 0
KBO1 112202Z 30008KT 40/07 A301 RMK A01 T03970073  RH  014%=      5-min Rain = 0
KBO1 112203Z 31008KT 40/07 A301 RMK A01 T03980072  RH  014%=      5-min Rain = 0
KBO1 112204Z 33006KT 40/07 A301 RMK A01 T03970067  RH  014%=      5-min Rain = 0
KBO1 112205Z 31003KT 40/07 A301 RMK A01 T03950067  RH  014%=      5-min Rain = 0
KBO1 112206Z 30001KT 40/06 A301 RMK A01 T03950064  RH  013%=      5-min Rain = 0
KBO1 112207Z 04001KT 40/07 A301 RMK A01 T03970071  RH  014%=      5-min Rain = 0
KBO1 112208Z 35001KT 40/07 A301 RMK A01 T03990072  RH  014%=      5-min Rain = 0
KBO1 112209Z 30003KT 40/07 A301 RMK A01 T04010068  RH  013%=      5-min Rain = 0
KBO1 112210Z 31004KT 40/07 A301 RMK A01 T04020068  RH  013%=      5-min Rain = 0
KBO1 112211Z 31003KT 40/07 A301 RMK A01 T04020069  RH  013%=      5-min Rain = 0
KBO1 112212Z 30003KT 40/07 A301 RMK A01 T04000069  RH  013%=      5-min Rain = 0
KBO1 112213Z 31003KT 40/07 A301 RMK A01 T04000069  RH  013%=      5-min Rain = 0
KBO1 112214Z 31003KT 40/07 A301 RMK A01 T04000067  RH  013%=      5-min Rain = 0
KBO1 112215Z 31002KT 40/07 A301 RMK A01 T03990067  RH  013%=      5-min Rain = 0
KBO1 112216Z 31006KT 40/07 A301 RMK A01 T04000071  RH  014%=      5-min Rain = 0
KBO1 112217Z 30005KT 40/06 A301 RMK A01 T04000062  RH  013%=      5-min Rain = 0
KBO1 112218Z 32004KT 40/06 A301 RMK A01 T04000058  RH  012%=      5-min Rain = 0
KBO1 112219Z 28004KT 40/06 A301 RMK A01 T03990057  RH  012%=      5-min Rain = 0
KBO1 112220Z 26009KT 40/05 A301 RMK A01 T03990051  RH  012%=      5-min Rain = 0
KBO1 112221Z 26011KT 40/05 A301 RMK A01 T04010049  RH  012%=      5-min Rain = 0
KBO1 112222Z 27010KT 40/04 A3009 RMK A01 T04020044  RH  011%=      5-min Rain = 0
KBO1 112223Z 28010KT 40/05 A3009 RMK A01 T04020045  RH  011%=      5-min Rain = 0
KBO1 112224Z 27011KT 40/05 A3009 RMK A01 T04010046  RH  011%=      5-min Rain = 0
KBO1 112225Z 27011KT 40/05 A3009 RMK A01 T04010047  RH  011%=      5-min Rain = 0
KBO1 112226Z 28012KT 40/05 A3009 RMK A01 T04030046  RH  011%=      5-min Rain = 0
KBO1 112227Z 28011KT 40/05 A3009 RMK A01 T04020047  RH  011%=      5-min Rain = 0
KBO1 112228Z 27009KT 40/05 A3009 RMK A01 T04020050  RH  012%=      5-min Rain = 0
KBO1 112229Z 27007KT 40/04 A3009 RMK A01 T04020043  RH  011%=      5-min Rain = 0
KBO1 112230Z 28009KT 40/05 A3009 RMK A01 T04010046  RH  011%=      5-min Rain = 0
KBO1 112231Z 28008G13KT 40/04 A3009 RMK A01 T04010042  RH  011%=      5-min Rain = 0
KBO1 112232Z 27011KT 40/05 A3009 RMK A01 T04000046  RH  011%=      5-min Rain = 0
KBO1 112233Z 28010KT 40/05 A3009 RMK A01 T04000048  RH  012%=      5-min Rain = 0
KBO1 112234Z 28009KT 40/05 A3009 RMK A01 T04000049  RH  012%=      5-min Rain = 0
KBO1 112235Z 27008KT 40/05 A3009 RMK A01 T04020049  RH  012%=      5-min Rain = 0
KBO1 112236Z 26007KT 40/04 A3009 RMK A01 T04020044  RH  011%=      5-min Rain = 0
KBO1 112237Z 25006KT 40/04 A3009 RMK A01 T04020044  RH  011%=      5-min Rain = 0
KBO1 112238Z 26006KT 40/04 A3009 RMK A01 T04010037  RH  011%=      5-min Rain = 0
KBO1 112239Z 27004KT 40/04 A3009 RMK A01 T03990043  RH  011%=      5-min Rain = 0
KBO1 112240Z 31005KT 40/04 A3009 RMK A01 T03990044  RH  011%=      5-min Rain = 0
KBO1 112241Z 32005KT 40/04 A3009 RMK A01 T04000040  RH  011%=      5-min Rain = 0
KBO1 112242Z 34003KT 40/04 A3009 RMK A01 T04000036  RH  011%=      5-min Rain = 0
KBO1 112243Z 35004KT 40/04 A3009 RMK A01 T03980038  RH  011%=      5-min Rain = 0
KBO1 112244Z 36003KT 40/04 A3009 RMK A01 T03980036  RH  011%=      5-min Rain = 0
KBO1 112245Z 02003KT 40/03 A3009 RMK A01 T03970034  RH  011%=      5-min Rain = 0
KBO1 112246Z 32004KT 40/04 A3008 RMK A01 T03960038  RH  011%=      5-min Rain = 0
KBO1 112247Z 35005KT 40/05 A3008 RMK A01 T03960048  RH  012%=      5-min Rain = 0
KBO1 112248Z 35004KT 40/05 A3008 RMK A01 T03990047  RH  012%=      5-min Rain = 0
KBO1 112249Z 34003KT 40/04 A3008 RMK A01 T04000041  RH  011%=      5-min Rain = 0
KBO1 112250Z 35004KT 40/04 A3008 RMK A01 T03990040  RH  011%=      5-min Rain = 0
KBO1 112251Z 33004KT 40/04 A3008 RMK A01 T03980039  RH  011%=      5-min Rain = 0
KBO1 112252Z 30007KT 40/05 A3008 RMK A01 T03970048  RH  012%=      5-min Rain = 0
KBO1 112253Z 28006KT 40/04 A3008 RMK A01 T03980041  RH  011%=      5-min Rain = 0
KBO1 112254Z 29003KT 40/04 A3008 RMK A01 T03970042  RH  011%=      5-min Rain = 0
KBO1 112255Z 32004KT 40/05 A3008 RMK A01 T03970047  RH  012%=      5-min Rain = 0
KBO1 112256Z 33005KT 40/05 A3008 RMK A01 T03980048  RH  012%=      5-min Rain = 0
KBO1 112257Z 34004KT 40/04 A3008 RMK A01 T03990044  RH  011%=      5-min Rain = 0
KBO1 112258Z 33003KT 40/04 A3008 RMK A01 T03970041  RH  011%=      5-min Rain = 0
KBO1 112259Z 31002KT 40/05 A3007 RMK A01 T03960046  RH  012%=      5-min Rain = 0
KBO1 112300Z 36004KT 40/05 A3007 RMK A01 T03980047  RH  012%=      5-min Rain = 0
KBO1 112301Z 32003KT 40/04 A3007 RMK A01 T03990044  RH  011%=      5-min Rain = 0
KBO1 112302Z 30005KT 40/05 A3007 RMK A01 T04000053  RH  012%=      5-min Rain = 0
KBO1 112303Z 31006KT 40/05 A3007 RMK A01 T04010051  RH  012%=      5-min Rain = 0
KBO1 112304Z 31003KT 40/05 A3007 RMK A01 T04010047  RH  012%=      5-min Rain = 0
KBO1 112305Z 32002KT 40/05 A3007 RMK A01 T04000047  RH  012%=      5-min Rain = 0
KBO1 112306Z 32002KT 40/05 A3007 RMK A01 T04010050  RH  012%=      5-min Rain = 0
KBO1 112307Z 32004KT 40/05 A3007 RMK A01 T04010054  RH  012%=      5-min Rain = 0
KBO1 112308Z 30003KT 40/06 A3007 RMK A01 T04030056  RH  012%=      5-min Rain = 0
KBO1 112309Z 01002KT 40/06 A3007 RMK A01 T04040062  RH  013%=      5-min Rain = 0
KBO1 112310Z 35002KT 41/05 A3007 RMK A01 T04060053  RH  012%=      5-min Rain = 0
KBO1 112311Z 35005KT 41/05 A3007 RMK A01 T04060047  RH  011%=      5-min Rain = 0
KBO1 112312Z 01006KT 41/05 A3007 RMK A01 T04050051  RH  012%=      5-min Rain = 0
KBO1 112313Z 01009KT 41/05 A3007 RMK A01 T04050052  RH  012%=      5-min Rain = 0
KBO1 112314Z 02007KT 40/04 A3007 RMK A01 T04030044  RH  011%=      5-min Rain = 0
KBO1 112315Z 02007KT 40/05 A3007 RMK A01 T04000045  RH  011%=      5-min Rain = 0
KBO1 112316Z 00006KT 40/05 A3007 RMK A01 T03980047  RH  012%=      5-min Rain = 0
KBO1 112317Z 01005KT 40/05 A3007 RMK A01 T03990047  RH  012%=      5-min Rain = 0
KBO1 112318Z 02005KT 40/04 A3007 RMK A01 T03990043  RH  011%=      5-min Rain = 0
KBO1 112319Z 04007KT 40/05 A3007 RMK A01 T03990045  RH  011%=      5-min Rain = 0
KBO1 112320Z 03007KT 40/05 A3007 RMK A01 T03990046  RH  012%=      5-min Rain = 0
KBO1 112321Z 05007KT 40/04 A3007 RMK A01 T03980043  RH  011%=      5-min Rain = 0
KBO1 112322Z 03007KT 40/05 A3007 RMK A01 T03970046  RH  012%=      5-min Rain = 0
KBO1 112323Z 04006KT 40/05 A3007 RMK A01 T03970049  RH  012%=      5-min Rain = 0
KBO1 112324Z 05003KT 40/04 A3007 RMK A01 T03970039  RH  011%=      5-min Rain = 0
KBO1 112325Z 05004KT 40/05 A3007 RMK A01 T03970046  RH  012%=      5-min Rain = 0
KBO1 112326Z 04005KT 40/05 A3007 RMK A01 T03980047  RH  012%=      5-min Rain = 0
KBO1 112327Z 02006KT 40/05 A3007 RMK A01 T03970048  RH  012%=      5-min Rain = 0
KBO1 112328Z 02004KT 40/04 A3007 RMK A01 T03970040  RH  011%=      5-min Rain = 0
KBO1 112329Z 05003KT 40/05 A3007 RMK A01 T03960048  RH  012%=      5-min Rain = 0
KBO1 112330Z 09003KT 40/05 A3007 RMK A01 T03980050  RH  012%=      5-min Rain = 0
KBO1 112331Z 04004KT 40/05 A3007 RMK A01 T03980045  RH  012%=      5-min Rain = 0
KBO1 112332Z 02005KT 40/05 A3007 RMK A01 T03980047  RH  012%=      5-min Rain = 0
KBO1 112333Z 01005KT 40/05 A3007 RMK A01 T03970047  RH  012%=      5-min Rain = 0
KBO1 112334Z 00003KT 40/05 A3006 RMK A01 T03970052  RH  012%=      5-min Rain = 0
KBO1 112335Z 09003KT 40/05 A3006 RMK A01 T03990048  RH  012%=      5-min Rain = 0
KBO1 112336Z 05004KT 40/05 A3006 RMK A01 T03990047  RH  012%=      5-min Rain = 0
KBO1 112337Z 03004KT 40/05 A3006 RMK A01 T03990047  RH  012%=      5-min Rain = 0
KBO1 112338Z 02004KT 40/04 A3007 RMK A01 T03980043  RH  011%=      5-min Rain = 0
KBO1 112339Z 34003KT 40/05 A3007 RMK A01 T03970047  RH  012%=      5-min Rain = 0
KBO1 112340Z 33006KT 40/05 A3007 RMK A01 T03970052  RH  012%=      5-min Rain = 0
KBO1 112341Z 34004KT 40/05 A3007 RMK A01 T03980051  RH  012%=      5-min Rain = 0
KBO1 112342Z 30005KT 40/06 A3007 RMK A01 T03970056  RH  013%=      5-min Rain = 0
KBO1 112343Z 29008KT 40/05 A3007 RMK A01 T03980053  RH  012%=      5-min Rain = 0
KBO1 112344Z 29006KT 40/05 A3007 RMK A01 T03980053  RH  012%=      5-min Rain = 0
KBO1 112345Z 29005KT 40/05 A3007 RMK A01 T03970052  RH  012%=      5-min Rain = 0
KBO1 112346Z 30004KT 40/05 A3007 RMK A01 T03960053  RH  012%=      5-min Rain = 0
KBO1 112347Z 31005KT 40/06 A3007 RMK A01 T03950057  RH  013%=      5-min Rain = 0
KBO1 112348Z 29005KT 40/06 A3007 RMK A01 T03950055  RH  013%=      5-min Rain = 0
KBO1 112349Z 30005KT 40/05 A3007 RMK A01 T03950050  RH  012%=      5-min Rain = 0
KBO1 112350Z 32005KT 40/06 A3007 RMK A01 T03950056  RH  013%=      5-min Rain = 0
KBO1 112351Z 31006KT 40/06 A3007 RMK A01 T03960062  RH  013%=      5-min Rain = 0
KBO1 112352Z 32007KT 40/06 A3007 RMK A01 T03970063  RH  013%=      5-min Rain = 0
KBO1 112353Z 33007KT 40/06 A3007 RMK A01 T03970059  RH  013%=      5-min Rain = 0
KBO1 112354Z 33007KT 40/05 A3007 RMK A01 T03970053  RH  012%=      5-min Rain = 0
KBO1 112355Z 33006KT 40/05 A3007 RMK A01 T03970052  RH  012%=      5-min Rain = 0
KBO1 112356Z 35004KT 40/06 A3007 RMK A01 T03970059  RH  013%=      5-min Rain = 0
KBO1 112357Z 03002KT 40/06 A3007 RMK A01 T03990060  RH  013%=      5-min Rain = 0
KBO1 112358Z 03003KT 40/06 A3007 RMK A01 T04000055  RH  012%=      5-min Rain = 0
KBO1 112359Z 34003KT 40/06 A3007 RMK A01 T04010058  RH  012%=      5-min Rain = 0
KBO1 120000Z 31003KT 40/06 A3007 RMK A01 T04020063  RH  013%=      5-min Rain = 0
KBO1 120001Z 30005KT 40/06 A3007 RMK A01 T04020059  RH  012%=      5-min Rain = 0
KBO1 120002Z 31004KT 40/06 A3007 RMK A01 T04020056  RH  012%=      5-min Rain = 0
KBO1 120003Z 31005KT 40/06 A3007 RMK A01 T04000055  RH  012%=      5-min Rain = 0
KBO1 120004Z 31004KT 40/05 A3007 RMK A01 T03990054  RH  012%=      5-min Rain = 0
KBO1 120005Z 35002KT 40/05 A3007 RMK A01 T03990047  RH  012%=      5-min Rain = 0
KBO1 120006Z 03002KT 40/05 A3007 RMK A01 T03980049  RH  012%=      5-min Rain = 0
KBO1 120007Z 00001KT 40/05 A3007 RMK A01 T03980048  RH  012%=      5-min Rain = 0
KBO1 120008Z 34003KT 40/05 A3007 RMK A01 T03990050  RH  012%=      5-min Rain = 0
KBO1 120009Z 34003KT 40/05 A3007 RMK A01 T04000047  RH  012%=      5-min Rain = 0
KBO1 120010Z 00004KT 40/05 A3007 RMK A01 T04000049  RH  012%=      5-min Rain = 0
KBO1 120011Z 00003KT 40/05 A3007 RMK A01 T03990048  RH  012%=      5-min Rain = 0
KBO1 120012Z 34002KT 40/05 A3007 RMK A01 T03980048  RH  012%=      5-min Rain = 0
KBO1 120013Z 33001KT 40/05 A3007 RMK A01 T03980052  RH  012%=      5-min Rain = 0
KBO1 120014Z 33004KT 40/05 A3007 RMK A01 T04000050  RH  012%=      5-min Rain = 0
KBO1 120015Z 32004KT 40/05 A3007 RMK A01 T04000049  RH  012%=      5-min Rain = 0
KBO1 120016Z 33004KT 40/05 A3007 RMK A01 T03990049  RH  012%=      5-min Rain = 0
KBO1 120017Z 02003KT 40/05 A3007 RMK A01 T03980047  RH  012%=      5-min Rain = 0
KBO1 120018Z 05004KT 40/05 A3007 RMK A01 T03970047  RH  012%=      5-min Rain = 0
KBO1 120019Z 05003KT 40/05 A3007 RMK A01 T03960048  RH  012%=      5-min Rain = 0
KBO1 120020Z 06002KT 39/05 A3007 RMK A01 T03940047  RH  012%=      5-min Rain = 0
KBO1 120021Z 03002KT 39/06 A3007 RMK A01 T03940058  RH  013%=      5-min Rain = 0
KBO1 120022Z 35001KT 39/06 A3007 RMK A01 T03940059  RH  013%=      5-min Rain = 0
KBO1 120023Z 05001KT 39/06 A3007 RMK A01 T03940056  RH  013%=      5-min Rain = 0
KBO1 120024Z 04002KT 40/06 A3007 RMK A01 T03950055  RH  013%=      5-min Rain = 0
KBO1 120025Z 03003KT 40/06 A3007 RMK A01 T03960056  RH  013%=      5-min Rain = 0
KBO1 120026Z 02003KT 39/05 A3007 RMK A01 T03940053  RH  012%=      5-min Rain = 0
KBO1 120027Z 04001KT 39/05 A3007 RMK A01 T03920054  RH  013%=      5-min Rain = 0
KBO1 120028Z 34003KT 39/06 A3007 RMK A01 T03910055  RH  013%=      5-min Rain = 0
KBO1 120029Z 00003KT 39/05 A3007 RMK A01 T03890050  RH  013%=      5-min Rain = 0
KBO1 120030Z 02002KT 39/05 A3007 RMK A01 T03870050  RH  013%=      5-min Rain = 0
KBO1 120031Z 02005KT 39/06 A3007 RMK A01 T03860062  RH  014%=      5-min Rain = 0
KBO1 120032Z 05004KT 38/07 A3007 RMK A01 T03820068  RH  015%=      5-min Rain = 0
KBO1 120033Z 07003KT 38/06 A3007 RMK A01 T03790062  RH  014%=      5-min Rain = 0
KBO1 120034Z 06004KT 38/07 A3007 RMK A01 T03780066  RH  015%=      5-min Rain = 0
KBO1 120035Z 05004KT 38/06 A3007 RMK A01 T03770064  RH  015%=      5-min Rain = 0
KBO1 120036Z 05004KT 38/07 A3007 RMK A01 T03750066  RH  015%=      5-min Rain = 0
KBO1 120037Z 06005KT 37/07 A3007 RMK A01 T03730067  RH  015%=      5-min Rain = 0
KBO1 120038Z 05004KT 37/07 A3007 RMK A01 T03710065  RH  015%=      5-min Rain = 0
KBO1 120039Z 05004KT 37/07 A3007 RMK A01 T03700066  RH  016%=      5-min Rain = 0
KBO1 120040Z 04005KT 37/06 A3007 RMK A01 T03690063  RH  015%=      5-min Rain = 0
KBO1 120041Z 06005KT 37/07 A3007 RMK A01 T03680066  RH  016%=      5-min Rain = 0
KBO1 120042Z 10005KT 37/07 A3007 RMK A01 T03660065  RH  016%=      5-min Rain = 0
KBO1 120043Z 10006KT 37/07 A3007 RMK A01 T03650066  RH  016%=      5-min Rain = 0
KBO1 120044Z 11005KT 36/07 A3007 RMK A01 T03640065  RH  016%=      5-min Rain = 0
KBO1 120045Z 10005KT 36/07 A3007 RMK A01 T03630068  RH  016%=      5-min Rain = 0
KBO1 120046Z 10005KT 36/07 A3007 RMK A01 T03610069  RH  017%=      5-min Rain = 0
KBO1 120047Z 09005KT 36/07 A3007 RMK A01 T03600067  RH  017%=      5-min Rain = 0
KBO1 120048Z 08005KT 36/07 A3007 RMK A01 T03580068  RH  017%=      5-min Rain = 0
KBO1 120049Z 08005KT 36/07 A3007 RMK A01 T03570069  RH  017%=      5-min Rain = 0
KBO1 120050Z 08005KT 36/07 A3008 RMK A01 T03550072  RH  018%=      5-min Rain = 0
KBO1 120051Z 09005KT 35/07 A3008 RMK A01 T03530071  RH  018%=      5-min Rain = 0
KBO1 120052Z 09005KT 35/07 A3008 RMK A01 T03520071  RH  018%=      5-min Rain = 0
KBO1 120053Z 09005KT 35/07 A3008 RMK A01 T03500073  RH  018%=      5-min Rain = 0
KBO1 120054Z 09005KT 35/07 A3008 RMK A01 T03490074  RH  018%=      5-min Rain = 0
KBO1 120055Z 08005KT 35/08 A3008 RMK A01 T03480075  RH  019%=      5-min Rain = 0
KBO1 120056Z 08005KT 35/08 A3007 RMK A01 T03470078  RH  019%=      5-min Rain = 0
KBO1 120057Z 08005KT 35/08 A3008 RMK A01 T03460078  RH  019%=      5-min Rain = 0
KBO1 120058Z 07005KT 34/08 A3008 RMK A01 T03440080  RH  020%=      5-min Rain = 0
KBO1 120059Z 07006KT 34/08 A3007 RMK A01 T03420082  RH  020%=      5-min Rain = 0
KBO1 120100Z 07006KT 34/08 A3007 RMK A01 T03400084  RH  021%=      5-min Rain = 0
KBO1 120101Z 06004KT 34/09 A3007 RMK A01 T03380088  RH  022%=      5-min Rain = 0
KBO1 120102Z 05004KT 34/08 A3007 RMK A01 T03360082  RH  021%=      5-min Rain = 0
KBO1 120103Z 06005KT 34/08 A3007 RMK A01 T03360084  RH  021%=      5-min Rain = 0
KBO1 120104Z 06005KT 34/09 A3007 RMK A01 T03360086  RH  021%=      5-min Rain = 0
KBO1 120105Z 05006KT 34/09 A3007 RMK A01 T03350086  RH  022%=      5-min Rain = 0
KBO1 120106Z 04006KT 34/09 A3007 RMK A01 T03350085  RH  021%=      5-min Rain = 0
KBO1 120107Z 04005KT 34/09 A3007 RMK A01 T03350087  RH  022%=      5-min Rain = 0
KBO1 120108Z 04006KT 33/08 A3007 RMK A01 T03340084  RH  021%=      5-min Rain = 0
KBO1 120109Z 04005KT 33/08 A3007 RMK A01 T03340083  RH  021%=      5-min Rain = 0
KBO1 120110Z 04006KT 33/08 A3008 RMK A01 T03340080  RH  021%=      5-min Rain = 0
KBO1 120111Z 04006KT 34/08 A3007 RMK A01 T03350084  RH  021%=      5-min Rain = 0
KBO1 120112Z 04007KT 34/08 A3007 RMK A01 T03350082  RH  021%=      5-min Rain = 0
KBO1 120113Z 04007KT 34/08 A3007 RMK A01 T03360082  RH  021%=      5-min Rain = 0
KBO1 120114Z 05006KT 34/08 A3007 RMK A01 T03360083  RH  021%=      5-min Rain = 0
KBO1 120115Z 04006KT 34/09 A3007 RMK A01 T03360089  RH  022%=      5-min Rain = 0
KBO1 120116Z 04006KT 33/09 A3007 RMK A01 T03330087  RH  022%=      5-min Rain = 0
KBO1 120117Z 04006KT 33/09 A3007 RMK A01 T03310086  RH  022%=      5-min Rain = 0
KBO1 120118Z 04006KT 33/08 A3007 RMK A01 T03310083  RH  022%=      5-min Rain = 0
KBO1 120119Z 05006KT 33/08 A3007 RMK A01 T03310082  RH  021%=      5-min Rain = 0
KBO1 120120Z 05006KT 33/08 A3007 RMK A01 T03320082  RH  021%=      5-min Rain = 0
KBO1 120121Z 05006KT 33/09 A3007 RMK A01 T03330085  RH  022%=      5-min Rain = 0
KBO1 120122Z 05005KT 33/09 A3007 RMK A01 T03320089  RH  022%=      5-min Rain = 0
KBO1 120123Z 05006KT 33/09 A3007 RMK A01 T03300087  RH  022%=      5-min Rain = 0
KBO1 120124Z 05005KT 33/09 A3007 RMK A01 T03280085  RH  022%=      5-min Rain = 0
KBO1 120125Z 05006KT 33/08 A3007 RMK A01 T03290082  RH  022%=      5-min Rain = 0
KBO1 120126Z 06005KT 33/09 A3007 RMK A01 T03300085  RH  022%=      5-min Rain = 0
KBO1 120127Z 07005KT 33/09 A3007 RMK A01 T03300087  RH  022%=      5-min Rain = 0
KBO1 120128Z 07005KT 33/09 A3007 RMK A01 T03300093  RH  023%=      5-min Rain = 0
KBO1 120129Z 07005KT 33/09 A3007 RMK A01 T03280088  RH  023%=      5-min Rain = 0
KBO1 120130Z 07005KT 33/09 A3007 RMK A01 T03270086  RH  023%=      5-min Rain = 0
KBO1 120131Z 07005KT 33/09 A3007 RMK A01 T03280086  RH  022%=      5-min Rain = 0
KBO1 120132Z 07005KT 33/09 A3007 RMK A01 T03280088  RH  023%=      5-min Rain = 0
KBO1 120133Z 07005KT 33/09 A3007 RMK A01 T03280087  RH  023%=      5-min Rain = 0
KBO1 120134Z 07006KT 33/09 A3008 RMK A01 T03280086  RH  022%=      5-min Rain = 0
KBO1 120135Z 06006KT 33/09 A3008 RMK A01 T03280087  RH  023%=      5-min Rain = 0
KBO1 120136Z 06006KT 33/09 A3008 RMK A01 T03290087  RH  023%=      5-min Rain = 0
KBO1 120137Z 05007KT 33/09 A3008 RMK A01 T03290087  RH  022%=      5-min Rain = 0
KBO1 120138Z 05007KT 33/09 A3008 RMK A01 T03290088  RH  023%=      5-min Rain = 0
KBO1 120139Z 05007KT 33/09 A3008 RMK A01 T03290089  RH  023%=      5-min Rain = 0
KBO1 120140Z 03007KT 33/09 A3008 RMK A01 T03280091  RH  023%=      5-min Rain = 0
KBO1 120141Z 01008KT 33/10 A3008 RMK A01 T03260097  RH  025%=      5-min Rain = 0
KBO1 120142Z 01008KT 32/10 A3008 RMK A01 T03210095  RH  025%=      5-min Rain = 0
KBO1 120143Z 36008KT 32/09 A3009 RMK A01 T03180094  RH  025%=      5-min Rain = 0
KBO1 120144Z 36007KT 32/10 A3009 RMK A01 T03180095  RH  025%=      5-min Rain = 0
KBO1 120145Z 36008KT 32/10 A3009 RMK A01 T03180095  RH  025%=      5-min Rain = 0
KBO1 120146Z 00009KT 32/10 A3009 RMK A01 T03170099  RH  026%=      5-min Rain = 0
KBO1 120147Z 00009KT 32/11 A3009 RMK A01 T03160105  RH  027%=      5-min Rain = 0
KBO1 120148Z 00009KT 32/11 A3009 RMK A01 T03160107  RH  028%=      5-min Rain = 0
KBO1 120149Z 01009KT 32/11 A3009 RMK A01 T03150110  RH  028%=      5-min Rain = 0
KBO1 120150Z 00008KT 32/11 A3009 RMK A01 T03150112  RH  029%=      5-min Rain = 0
KBO1 120151Z 36008KT 32/11 A3009 RMK A01 T03150114  RH  029%=      5-min Rain = 0
KBO1 120152Z 34007KT 32/12 A3009 RMK A01 T03160117  RH  029%=      5-min Rain = 0
KBO1 120153Z 33008KT 32/12 A3009 RMK A01 T03170120  RH  030%=      5-min Rain = 0
KBO1 120154Z 33007KT 31/12 A3009 RMK A01 T03140123  RH  031%=      5-min Rain = 0
KBO1 120155Z 33008KT 31/13 A3009 RMK A01 T03110125  RH  032%=      5-min Rain = 0
KBO1 120156Z 34008KT 31/13 A301 RMK A01 T03090128  RH  033%=      5-min Rain = 0
KBO1 120157Z 34010KT 31/13 A301 RMK A01 T03070130  RH  034%=      5-min Rain = 0
KBO1 120158Z 34010KT 31/13 A301 RMK A01 T03070132  RH  034%=      5-min Rain = 0
KBO1 120159Z 33010KT 31/13 A301 RMK A01 T03070133  RH  035%=      5-min Rain = 0
KBO1 120200Z 33009KT 31/13 A301 RMK A01 T03070134  RH  035%=      5-min Rain = 0
KBO1 120201Z 33009KT 31/14 A301 RMK A01 T03060135  RH  035%=      5-min Rain = 0
KBO1 120202Z 34010KT 31/14 A301 RMK A01 T03050136  RH  036%=      5-min Rain = 0
KBO1 120203Z 34010KT 31/14 A301 RMK A01 T03050137  RH  036%=      5-min Rain = 0
KBO1 120204Z 34010KT 31/14 A3011 RMK A01 T03050138  RH  036%=      5-min Rain = 0
KBO1 120205Z 34010KT 31/14 A3011 RMK A01 T03050138  RH  036%=      5-min Rain = 0
KBO1 120206Z 34010KT 31/14 A3011 RMK A01 T03060139  RH  036%=      5-min Rain = 0
KBO1 120207Z 34011KT 31/14 A3011 RMK A01 T03060139  RH  036%=      5-min Rain = 0
KBO1 120208Z 34012KT 31/14 A3011 RMK A01 T03070140  RH  036%=      5-min Rain = 0
KBO1 120209Z 34012KT 31/14 A3011 RMK A01 T03090140  RH  036%=      5-min Rain = 0
KBO1 120210Z 34011KT 31/14 A3011 RMK A01 T03090140  RH  036%=      5-min Rain = 0
KBO1 120211Z 34011KT 31/14 A3011 RMK A01 T03100141  RH  036%=      5-min Rain = 0
KBO1 120212Z 34011KT 31/14 A3011 RMK A01 T03100141  RH  036%=      5-min Rain = 0
KBO1 120213Z 34012KT 31/14 A3011 RMK A01 T03110141  RH  036%=      5-min Rain = 0
KBO1 120214Z 35011KT 31/14 A3011 RMK A01 T03120141  RH  035%=      5-min Rain = 0
KBO1 120215Z 35012KT 31/14 A3011 RMK A01 T03130140  RH  035%=      5-min Rain = 0
KBO1 120216Z 35012KT 32/14 A3012 RMK A01 T03150140  RH  035%=      5-min Rain = 0
KBO1 120217Z 35012KT 32/14 A3012 RMK A01 T03170141  RH  034%=      5-min Rain = 0
KBO1 120218Z 35012KT 32/14 A3012 RMK A01 T03190141  RH  034%=      5-min Rain = 0
KBO1 120219Z 35011KT 32/14 A3012 RMK A01 T03190141  RH  034%=      5-min Rain = 0
KBO1 120220Z 35012KT 32/14 A3012 RMK A01 T03200141  RH  034%=      5-min Rain = 0
KBO1 120221Z 35015KT 32/14 A3012 RMK A01 T03200141  RH  034%=      5-min Rain = 0
KBO1 120222Z 35015KT 32/14 A3012 RMK A01 T03210142  RH  034%=      5-min Rain = 0
KBO1 120223Z 35016KT 32/14 A3012 RMK A01 T03220142  RH  034%=      5-min Rain = 0
KBO1 120224Z 35019G26KT 32/14 A3013 RMK A01 T03230141  RH  033%=      5-min Rain = 0
KBO1 120225Z 35022KT 32/14 A3013 RMK A01 T03240139  RH  033%=      5-min Rain = 0
KBO1 120226Z 35024G31KT 33/14 A3013 RMK A01 T03250135  RH  032%=      5-min Rain = 0
KBO1 120227Z 35026KT 32/12 A3013 RMK A01 T03230122  RH  029%=      5-min Rain = 0
KBO1 120228Z 36024KT 32/12 A3014 RMK A01 T03200115  RH  028%=      5-min Rain = 0
KBO1 120229Z 36024G29KT 32/11 A3014 RMK A01 T03170106  RH  027%=      5-min Rain = 0
KBO1 120230Z 35024KT 31/10 A3014 RMK A01 T03140103  RH  027%=      5-min Rain = 0
KBO1 120231Z 36020KT 31/10 A3014 RMK A01 T03120101  RH  027%=      5-min Rain = 0
KBO1 120232Z 35021KT 31/10 A3013 RMK A01 T03110100  RH  027%=      5-min Rain = 0
KBO1 120233Z 36020G25KT 31/10 A3013 RMK A01 T03090098  RH  027%=      5-min Rain = 0
KBO1 120234Z 35019G25KT 31/10 A3013 RMK A01 T03090096  RH  027%=      5-min Rain = 0
KBO1 120235Z 36018KT 31/10 A3014 RMK A01 T03080096  RH  027%=      5-min Rain = 0
KBO1 120236Z 35019KT 31/09 A3014 RMK A01 T03070094  RH  027%=      5-min Rain = 0
KBO1 120237Z 35019KT 31/09 A3014 RMK A01 T03070094  RH  027%=      5-min Rain = 0
KBO1 120238Z 35016G21KT 31/09 A3014 RMK A01 T03060093  RH  027%=      5-min Rain = 0
KBO1 120239Z 35018KT 31/09 A3014 RMK A01 T03050093  RH  027%=      5-min Rain = 0
KBO1 120240Z 35017KT 30/09 A3014 RMK A01 T03040092  RH  027%=      5-min Rain = 0
KBO1 120241Z 35018KT 30/09 A3014 RMK A01 T03030090  RH  027%=      5-min Rain = 0
KBO1 120242Z 34016KT 30/09 A3014 RMK A01 T03040090  RH  026%=      5-min Rain = 0
KBO1 120243Z 34017KT 30/09 A3015 RMK A01 T03030089  RH  026%=      5-min Rain = 0
KBO1 120244Z 34015KT 30/09 A3015 RMK A01 T03030089  RH  026%=      5-min Rain = 0
KBO1 120245Z 34015KT 30/09 A3015 RMK A01 T03020089  RH  027%=      5-min Rain = 0
KBO1 120246Z 34014KT 30/09 A3015 RMK A01 T03020089  RH  027%=      5-min Rain = 0
KBO1 120247Z 33016KT 30/09 A3015 RMK A01 T03010088  RH  027%=      5-min Rain = 0
KBO1 120248Z 33014KT 30/09 A3016 RMK A01 T03010088  RH  026%=      5-min Rain = 0
KBO1 120249Z 33014KT 30/09 A3016 RMK A01 T03010088  RH  026%=      5-min Rain = 0
KBO1 120250Z 33017KT 30/09 A3016 RMK A01 T03010087  RH  026%=      5-min Rain = 0
KBO1 120251Z 33015KT 30/09 A3016 RMK A01 T03010087  RH  026%=      5-min Rain = 0
KBO1 120252Z 32017KT 30/09 A3016 RMK A01 T03010087  RH  026%=      5-min Rain = 0
KBO1 120253Z 32013KT 30/09 A3017 RMK A01 T03020086  RH  026%=      5-min Rain = 0
KBO1 120254Z 32016KT 30/09 A3017 RMK A01 T03020086  RH  026%=      5-min Rain = 0
KBO1 120255Z 32013KT 30/09 A3017 RMK A01 T03020086  RH  026%=      5-min Rain = 0
KBO1 120256Z 31015KT 30/09 A3017 RMK A01 T03020087  RH  026%=      5-min Rain = 0
KBO1 120257Z 31013KT 30/09 A3017 RMK A01 T03020088  RH  026%=      5-min Rain = 0
KBO1 120258Z 31015KT 30/09 A3017 RMK A01 T03020088  RH  026%=      5-min Rain = 0
KBO1 120259Z 31014KT 30/09 A3017 RMK A01 T03020087  RH  026%=      5-min Rain = 0
KBO1 120300Z 31016KT 30/09 A3017 RMK A01 T03020088  RH  026%=      5-min Rain = 0
KBO1 120301Z 32015KT 30/09 A3017 RMK A01 T03020087  RH  026%=      5-min Rain = 0
KBO1 120302Z 31016KT 30/09 A3017 RMK A01 T03020086  RH  026%=      5-min Rain = 0
KBO1 120303Z 32015KT 30/09 A3017 RMK A01 T03030086  RH  026%=      5-min Rain = 0
KBO1 120304Z 32015KT 30/09 A3017 RMK A01 T03030086  RH  026%=      5-min Rain = 0
KBO1 120305Z 32014KT 30/09 A3017 RMK A01 T03030086  RH  026%=      5-min Rain = 0
KBO1 120306Z 32015KT 30/09 A3017 RMK A01 T03030085  RH  026%=      5-min Rain = 0
KBO1 120307Z 33015KT 30/09 A3017 RMK A01 T03030085  RH  026%=      5-min Rain = 0
KBO1 120308Z 33013KT 30/09 A3017 RMK A01 T03040085  RH  026%=      5-min Rain = 0
KBO1 120309Z 33014KT 30/09 A3017 RMK A01 T03040086  RH  026%=      5-min Rain = 0
KBO1 120310Z 33014KT 30/09 A3017 RMK A01 T03030086  RH  026%=      5-min Rain = 0
KBO1 120311Z 33013KT 30/09 A3017 RMK A01 T03030086  RH  026%=      5-min Rain = 0
KBO1 120312Z 33013KT 30/09 A3017 RMK A01 T03030086  RH  026%=      5-min Rain = 0
KBO1 120313Z 33013KT 30/09 A3017 RMK A01 T03030086  RH  026%=      5-min Rain = 0
KBO1 120314Z 33013KT 30/09 A3017 RMK A01 T03030086  RH  026%=      5-min Rain = 0
KBO1 120315Z 33012KT 30/09 A3017 RMK A01 T03030086  RH  026%=      5-min Rain = 0
KBO1 120316Z 33013KT 30/09 A3017 RMK A01 T03020085  RH  026%=      5-min Rain = 0
KBO1 120317Z 33012KT 30/09 A3016 RMK A01 T03020085  RH  026%=      5-min Rain = 0
KBO1 120318Z 33012KT 30/09 A3016 RMK A01 T03020085  RH  026%=      5-min Rain = 0
KBO1 120319Z 33011KT 30/09 A3016 RMK A01 T03030086  RH  026%=      5-min Rain = 0
KBO1 120320Z 33011KT 30/09 A3016 RMK A01 T03020086  RH  026%=      5-min Rain = 0
KBO1 120321Z 32011KT 30/09 A3016 RMK A01 T03020086  RH  026%=      5-min Rain = 0
KBO1 120322Z 33010KT 30/09 A3016 RMK A01 T03020086  RH  026%=      5-min Rain = 0
KBO1 120323Z 32009KT 30/09 A3016 RMK A01 T03020087  RH  026%=      5-min Rain = 0
KBO1 120324Z 33010KT 30/09 A3016 RMK A01 T03010087  RH  026%=      5-min Rain = 0
KBO1 120325Z 34009KT 30/09 A3016 RMK A01 T03010087  RH  026%=      5-min Rain = 0
KBO1 120326Z 34009KT 30/09 A3016 RMK A01 T03010087  RH  026%=      5-min Rain = 0
KBO1 120327Z 34009KT 30/09 A3016 RMK A01 T03000087  RH  026%=      5-min Rain = 0
KBO1 120328Z 34009KT 30/09 A3016 RMK A01 T03000086  RH  026%=      5-min Rain = 0
KBO1 120329Z 33007KT 30/09 A3016 RMK A01 T03000086  RH  026%=      5-min Rain = 0
KBO1 120330Z 33008KT 30/09 A3016 RMK A01 T03000087  RH  026%=      5-min Rain = 0
KBO1 120331Z 33007KT 30/09 A3016 RMK A01 T03000087  RH  027%=      5-min Rain = 0
KBO1 120332Z 34006KT 30/09 A3017 RMK A01 T03000088  RH  027%=      5-min Rain = 0
KBO1 120333Z 34006KT 30/09 A3017 RMK A01 T02990088  RH  027%=      5-min Rain = 0
KBO1 120334Z 35005KT 30/09 A3017 RMK A01 T02990087  RH  027%=      5-min Rain = 0
KBO1 120335Z 34005KT 30/09 A3017 RMK A01 T02980088  RH  027%=      5-min Rain = 0
KBO1 120336Z 35004KT 30/09 A3017 RMK A01 T02980087  RH  027%=      5-min Rain = 0
KBO1 120337Z 34004KT 30/09 A3017 RMK A01 T02980087  RH  027%=      5-min Rain = 0
KBO1 120338Z 34003KT 30/09 A3017 RMK A01 T02980089  RH  027%=      5-min Rain = 0
KBO1 120339Z 34003KT 30/09 A3017 RMK A01 T02980091  RH  028%=      5-min Rain = 0
KBO1 120340Z 35002KT 30/10 A3017 RMK A01 T02980096  RH  029%=      5-min Rain = 0
KBO1 120341Z 34003KT 30/10 A3017 RMK A01 T02970097  RH  029%=      5-min Rain = 0.01
KBO1 120342Z 35003KT 30/11 A3017 RMK A01 T02960105  RH  031%=      5-min Rain = 0
KBO1 120343Z 01003KT 30/09 A3017 RMK A01 T02950093  RH  028%=      5-min Rain = 0.01
KBO1 120344Z 02005KT 30/09 A3017 RMK A01 T02950093  RH  028%=      5-min Rain = 0
KBO1 120345Z 03007KT 29/10 A3017 RMK A01 T02940097  RH  029%=      5-min Rain = 0
KBO1 120346Z 03008KT 29/12 A3017 RMK A01 T02940119  RH  034%=      5-min Rain = 0
KBO1 120347Z 04009KT 29/14 A3017 RMK A01 T02890142  RH  041%=      5-min Rain = 0
KBO1 120348Z 05010KT 28/14 A3017 RMK A01 T02800141  RH  043%=      5-min Rain = 0
KBO1 120349Z 04013KT 27/15 A3017 RMK A01 T02730145  RH  046%=      5-min Rain = 0
KBO1 120350Z 04014KT 27/15 A3017 RMK A01 T02660147  RH  048%=      5-min Rain = 0
KBO1 120351Z 03015KT 26/15 A3017 RMK A01 T02600145  RH  049%=      5-min Rain = 0
KBO1 120352Z 03017KT 26/15 A3017 RMK A01 T02560145  RH  050%=      5-min Rain = 0
KBO1 120353Z 03016KT 25/14 A3017 RMK A01 T02530140  RH  049%=      5-min Rain = 0
KBO1 120354Z 02014KT 25/14 A3017 RMK A01 T02530143  RH  050%=      5-min Rain = 0
KBO1 120355Z 01020G25KT 25/14 A3016 RMK A01 T02540142  RH  050%=      5-min Rain = 0
KBO1 120356Z 02020KT 27/14 A3016 RMK A01 T02650137  RH  045%=      5-min Rain = 0
KBO1 120357Z 03015KT 27/14 A3016 RMK A01 T02710139  RH  044%=      5-min Rain = 0
KBO1 120358Z 03018KT 27/14 A3016 RMK A01 T02710137  RH  044%=      5-min Rain = 0
KBO1 120359Z 03017KT 27/14 A3016 RMK A01 T02740139  RH  043%=      5-min Rain = 0
KBO1 120400Z 02013KT 28/13 A3016 RMK A01 T02750134  RH  042%=      5-min Rain = 0
KBO1 120401Z 03012KT 28/14 A3016 RMK A01 T02770139  RH  043%=      5-min Rain = 0
KBO1 120402Z 02013KT 28/13 A3015 RMK A01 T02770133  RH  041%=      5-min Rain = 0
KBO1 120403Z 02011KT 28/13 A3015 RMK A01 T02830128  RH  038%=      5-min Rain = 0
KBO1 120404Z 02013KT 29/14 A3015 RMK A01 T02850136  RH  040%=      5-min Rain = 0
KBO1 120405Z 02013KT 28/14 A3015 RMK A01 T02830138  RH  041%=      5-min Rain = 0
KBO1 120406Z 02016KT 28/13 A3015 RMK A01 T02810133  RH  040%=      5-min Rain = 0
KBO1 120407Z 02014KT 28/13 A3015 RMK A01 T02840129  RH  038%=      5-min Rain = 0
KBO1 120408Z 02012KT 29/14 A3015 RMK A01 T02860139  RH  041%=      5-min Rain = 0
KBO1 120409Z 03015KT 28/14 A3015 RMK A01 T02820140  RH  042%=      5-min Rain = 0
KBO1 120410Z 02017KT 28/13 A3015 RMK A01 T02780133  RH  041%=      5-min Rain = 0
KBO1 120411Z 02016KT 28/14 A3015 RMK A01 T02790135  RH  041%=      5-min Rain = 0
KBO1 120412Z 02015KT 28/14 A3015 RMK A01 T02770139  RH  043%=      5-min Rain = 0
KBO1 120413Z 02015KT 27/14 A3015 RMK A01 T02740140  RH  044%=      5-min Rain = 0
KBO1 120414Z 02016KT 27/13 A3015 RMK A01 T02730134  RH  042%=      5-min Rain = 0
KBO1 120415Z 02014KT 27/14 A3015 RMK A01 T02740135  RH  042%=      5-min Rain = 0
KBO1 120416Z 03011KT 28/14 A3015 RMK A01 T02750136  RH  042%=      5-min Rain = 0
KBO1 120417Z 05011KT 27/14 A3015 RMK A01 T02730144  RH  045%=      5-min Rain = 0
KBO1 120418Z 04011KT 27/14 A3015 RMK A01 T02690143  RH  046%=      5-min Rain = 0
KBO1 120419Z 05011KT 27/14 A3015 RMK A01 T02670142  RH  046%=      5-min Rain = 0
KBO1 120420Z 05019KT 27/14 A3015 RMK A01 T02660137  RH  045%=      5-min Rain = 0
KBO1 120421Z 04017G23KT 27/13 A3015 RMK A01 T02670130  RH  043%=      5-min Rain = 0
KBO1 120422Z 05012KT 27/14 A3015 RMK A01 T02680135  RH  044%=      5-min Rain = 0
KBO1 120423Z 08011KT 27/14 A3015 RMK A01 T02650138  RH  045%=      5-min Rain = 0
KBO1 120424Z 06009KT 26/14 A3015 RMK A01 T02600139  RH  047%=      5-min Rain = 0
KBO1 120425Z 05011KT 26/14 A3015 RMK A01 T02560135  RH  047%=      5-min Rain = 0
KBO1 120426Z 06012KT 26/14 A3014 RMK A01 T02550140  RH  049%=      5-min Rain = 0
KBO1 120427Z 07013KT 25/14 A3014 RMK A01 T02540135  RH  048%=      5-min Rain = 0
KBO1 120428Z 07017KT 26/13 A3013 RMK A01 T02570127  RH  045%=      5-min Rain = 0
KBO1 120429Z 06016KT 27/12 A3013 RMK A01 T02680123  RH  040%=      5-min Rain = 0
KBO1 120430Z 06014KT 27/13 A3013 RMK A01 T02720133  RH  042%=      5-min Rain = 0
KBO1 120431Z 06013KT 26/14 A3013 RMK A01 T02640138  RH  046%=      5-min Rain = 0
KBO1 120432Z 06013KT 26/14 A3012 RMK A01 T02560139  RH  048%=      5-min Rain = 0
KBO1 120433Z 07014KT 25/14 A3012 RMK A01 T02510139  RH  050%=      5-min Rain = 0
KBO1 120434Z 07015KT 25/14 A3012 RMK A01 T02500137  RH  049%=      5-min Rain = 0
KBO1 120435Z 07015KT 25/13 A3012 RMK A01 T02520134  RH  048%=      5-min Rain = 0
KBO1 120436Z 07013KT 25/14 A3012 RMK A01 T02530135  RH  048%=      5-min Rain = 0
KBO1 120437Z 07013KT 25/14 A3012 RMK A01 T02520135  RH  048%=      5-min Rain = 0
KBO1 120438Z 08012KT 25/13 A3012 RMK A01 T02510133  RH  048%=      5-min Rain = 0
KBO1 120439Z 09010KT 25/14 A3012 RMK A01 T02500136  RH  049%=      5-min Rain = 0
KBO1 120440Z 10011KT 25/14 A3012 RMK A01 T02480140  RH  051%=      5-min Rain = 0
KBO1 120441Z 09011KT 25/14 A3012 RMK A01 T02460140  RH  052%=      5-min Rain = 0
KBO1 120442Z 08012KT 25/14 A3012 RMK A01 T02450139  RH  052%=      5-min Rain = 0
KBO1 120443Z 08014KT 25/13 A3012 RMK A01 T02460134  RH  050%=      5-min Rain = 0
KBO1 120444Z 09014KT 25/13 A3012 RMK A01 T02510132  RH  048%=      5-min Rain = 0
KBO1 120445Z 10012KT 25/13 A3012 RMK A01 T02540131  RH  047%=      5-min Rain = 0
KBO1 120446Z 09011KT 25/14 A3012 RMK A01 T02540135  RH  048%=      5-min Rain = 0
KBO1 120447Z 10011KT 25/14 A3012 RMK A01 T02520136  RH  048%=      5-min Rain = 0
KBO1 120448Z 09010KT 25/14 A3012 RMK A01 T02500135  RH  049%=      5-min Rain = 0
KBO1 120449Z 08010KT 25/13 A3012 RMK A01 T02500133  RH  048%=      5-min Rain = 0
KBO1 120450Z 08009KT 25/13 A3012 RMK A01 T02500133  RH  048%=      5-min Rain = 0
KBO1 120451Z 08010KT 25/13 A3012 RMK A01 T02510132  RH  048%=      5-min Rain = 0
KBO1 120452Z 09009KT 25/13 A3012 RMK A01 T02540129  RH  046%=      5-min Rain = 0
KBO1 120453Z 09009KT 26/13 A3012 RMK A01 T02560129  RH  045%=      5-min Rain = 0
KBO1 120454Z 08009KT 26/13 A3012 RMK A01 T02580127  RH  044%=      5-min Rain = 0
KBO1 120455Z 08011KT 26/13 A3012 RMK A01 T02600128  RH  044%=      5-min Rain = 0
KBO1 120456Z 08011KT 26/13 A3012 RMK A01 T02610127  RH  043%=      5-min Rain = 0
KBO1 120457Z 08011KT 26/13 A3012 RMK A01 T02630127  RH  043%=      5-min Rain = 0
KBO1 120458Z 08010KT 27/13 A3012 RMK A01 T02650125  RH  042%=      5-min Rain = 0
KBO1 120459Z 09009KT 27/13 A3012 RMK A01 T02660125  RH  041%=      5-min Rain = 0

Page generated in 0.0711 seconds.